<?xml version="1.0" encoding="UTF-8" standalone="no" ?><gpx xmlns="http://www.topografix.com/GPX/1/1" xmlns:gpxx="http://www.garmin.com/xmlschemas/GpxExtensions/v3" xmlns:wptx1="http://www.garmin.com/xmlschemas/WaypointExtension/v1" xmlns:gpxtpx="http://www.garmin.com/xmlschemas/TrackPointExtension/v1" creator="GuideVTT.com" version="1.1" xmlns:xsi="http://www.w3.org/2001/XMLSchema-instance" xsi:schemaLocation="http://www.topografix.com/GPX/1/1 http://www.topografix.com/GPX/1/1/gpx.xsd http://www.garmin.com/xmlschemas/GpxExtensions/v3 http://www8.garmin.com/xmlschemas/GpxExtensionsv3.xsd http://www.garmin.com/xmlschemas/WaypointExtension/v1 http://www8.garmin.com/xmlschemas/WaypointExtensionv1.xsd http://www.garmin.com/xmlschemas/TrackPointExtension/v1 http://www.garmin.com/xmlschemas/TrackPointExtensionv1.xsd">
<metadata><link href="http://www.garmin.com"><text>Garmin International</text></link><time>2013-06-22T15:13:50Z</time></metadata>
<trk><name>rp2015_17.gpx</name><extensions><gpxx:TrackExtension><gpxx:DisplayColor>Cyan</gpxx:DisplayColor></gpxx:TrackExtension></extensions><trkseg>
<trkpt lat="46.1359318625" lon="7.3162013479"><ele></ele><time>2015-8-15T10:29:11Z</time></trkpt>
<trkpt lat="46.1359182838" lon="7.3161948938"><ele></ele><time>2015-8-15T10:29:14Z</time></trkpt>
<trkpt lat="46.1359119136" lon="7.3161793873"><ele></ele><time>2015-8-15T10:29:17Z</time></trkpt>
<trkpt lat="46.1359125841" lon="7.3161659762"><ele></ele><time>2015-8-15T10:29:20Z</time></trkpt>
<trkpt lat="46.1359075550" lon="7.3161392380"><ele></ele><time>2015-8-15T10:29:23Z</time></trkpt>
<trkpt lat="46.1359064654" lon="7.3161358852"><ele></ele><time>2015-8-15T10:29:26Z</time></trkpt>
<trkpt lat="46.1359107401" lon="7.3161295988"><ele></ele><time>2015-8-15T10:29:29Z</time></trkpt>
<trkpt lat="46.1359118298" lon="7.3161244858"><ele></ele><time>2015-8-15T10:29:32Z</time></trkpt>
<trkpt lat="46.1359011009" lon="7.3161315266"><ele></ele><time>2015-8-15T10:29:35Z</time></trkpt>
<trkpt lat="46.1359069683" lon="7.3161337897"><ele></ele><time>2015-8-15T10:29:38Z</time></trkpt>
<trkpt lat="46.1359098181" lon="7.3161439318"><ele></ele><time>2015-8-15T10:29:41Z</time></trkpt>
<trkpt lat="46.1359172780" lon="7.3161417525"><ele></ele><time>2015-8-15T10:29:44Z</time></trkpt>
<trkpt lat="46.1359168589" lon="7.3161430936"><ele></ele><time>2015-8-15T10:29:47Z</time></trkpt>
<trkpt lat="46.1359133385" lon="7.3161580134"><ele></ele><time>2015-8-15T10:29:50Z</time></trkpt>
<trkpt lat="46.1359137576" lon="7.3161745258"><ele></ele><time>2015-8-15T10:29:53Z</time></trkpt>
<trkpt lat="46.1359106563" lon="7.3161782976"><ele></ele><time>2015-8-15T10:29:56Z</time></trkpt>
<trkpt lat="46.1359077226" lon="7.3161806446"><ele></ele><time>2015-8-15T10:29:59Z</time></trkpt>
<trkpt lat="46.1359235644" lon="7.3161720950"><ele></ele><time>2015-8-15T10:30:2Z</time></trkpt>
<trkpt lat="46.1359406635" lon="7.3161637131"><ele></ele><time>2015-8-15T10:30:5Z</time></trkpt>
<trkpt lat="46.1360687390" lon="7.3161426745"><ele></ele><time>2015-8-15T10:30:8Z</time></trkpt>
<trkpt lat="46.1361011770" lon="7.3163317703"><ele></ele><time>2015-8-15T10:30:11Z</time></trkpt>
<trkpt lat="46.1358162761" lon="7.3167184275"><ele></ele><time>2015-8-15T10:30:14Z</time></trkpt>
<trkpt lat="46.1354416050" lon="7.3171447311"><ele></ele><time>2015-8-15T10:30:17Z</time></trkpt>
<trkpt lat="46.1352604721" lon="7.3173883092"><ele></ele><time>2015-8-15T10:30:20Z</time></trkpt>
<trkpt lat="46.1352259386" lon="7.3173998762"><ele></ele><time>2015-8-15T10:30:23Z</time></trkpt>
<trkpt lat="46.1350769084" lon="7.3174801748"><ele></ele><time>2015-8-15T10:30:26Z</time></trkpt>
<trkpt lat="46.1346555501" lon="7.3178623058"><ele></ele><time>2015-8-15T10:30:29Z</time></trkpt>
<trkpt lat="46.1343607586" lon="7.3182285111"><ele></ele><time>2015-8-15T10:30:32Z</time></trkpt>
<trkpt lat="46.1340467725" lon="7.3186261486"><ele></ele><time>2015-8-15T10:30:35Z</time></trkpt>
<trkpt lat="46.1336956546" lon="7.3187636957"><ele></ele><time>2015-8-15T10:30:38Z</time></trkpt>
<trkpt lat="46.1334083229" lon="7.3187082075"><ele></ele><time>2015-8-15T10:30:41Z</time></trkpt>
<trkpt lat="46.1330955103" lon="7.3185096402"><ele></ele><time>2015-8-15T10:30:44Z</time></trkpt>
<trkpt lat="46.1328544468" lon="7.3183521442"><ele></ele><time>2015-8-15T10:30:47Z</time></trkpt>
<trkpt lat="46.1326141376" lon="7.3181266710"><ele></ele><time>2015-8-15T10:30:50Z</time></trkpt>
<trkpt lat="46.1323826294" lon="7.3178891279"><ele></ele><time>2015-8-15T10:30:53Z</time></trkpt>
<trkpt lat="46.1321289930" lon="7.3177787382"><ele></ele><time>2015-8-15T10:30:56Z</time></trkpt>
<trkpt lat="46.1318596825" lon="7.3176819272"><ele></ele><time>2015-8-15T10:30:59Z</time></trkpt>
<trkpt lat="46.1315709259" lon="7.3175665084"><ele></ele><time>2015-8-15T10:31:2Z</time></trkpt>
<trkpt lat="46.1312940717" lon="7.3174898140"><ele></ele><time>2015-8-15T10:31:5Z</time></trkpt>
<trkpt lat="46.1309184786" lon="7.3174147960"><ele></ele><time>2015-8-15T10:31:8Z</time></trkpt>
<trkpt lat="46.1308370065" lon="7.3173968587"><ele></ele><time>2015-8-15T10:31:11Z</time></trkpt>
<trkpt lat="46.1304086074" lon="7.3172001354"><ele></ele><time>2015-8-15T10:31:14Z</time></trkpt>
<trkpt lat="46.1299958825" lon="7.3173443880"><ele></ele><time>2015-8-15T10:31:17Z</time></trkpt>
<trkpt lat="46.1295289267" lon="7.3175841104"><ele></ele><time>2015-8-15T10:31:20Z</time></trkpt>
<trkpt lat="46.1294652242" lon="7.3176007066"><ele></ele><time>2015-8-15T10:31:23Z</time></trkpt>
<trkpt lat="46.1294856761" lon="7.3177126050"><ele></ele><time>2015-8-15T10:31:26Z</time></trkpt>
<trkpt lat="46.1295870133" lon="7.3176489025"><ele></ele><time>2015-8-15T10:31:29Z</time></trkpt>
<trkpt lat="46.1298646219" lon="7.3176333960"><ele></ele><time>2015-8-15T10:31:32Z</time></trkpt>
<trkpt lat="46.1301089544" lon="7.3177057318"><ele></ele><time>2015-8-15T10:31:35Z</time></trkpt>
<trkpt lat="46.1303409655" lon="7.3178324662"><ele></ele><time>2015-8-15T10:31:38Z</time></trkpt>
<trkpt lat="46.1305951048" lon="7.3178816680"><ele></ele><time>2015-8-15T10:31:41Z</time></trkpt>
<trkpt lat="46.1308093462" lon="7.3180068936"><ele></ele><time>2015-8-15T10:31:44Z</time></trkpt>
<trkpt lat="46.1310463864" lon="7.3181843385"><ele></ele><time>2015-8-15T10:31:47Z</time></trkpt>
<trkpt lat="46.1313263420" lon="7.3183971550"><ele></ele><time>2015-8-15T10:31:50Z</time></trkpt>
<trkpt lat="46.1315436848" lon="7.3185740970"><ele></ele><time>2015-8-15T10:31:53Z</time></trkpt>
<trkpt lat="46.1317036115" lon="7.3188224528"><ele></ele><time>2015-8-15T10:31:56Z</time></trkpt>
<trkpt lat="46.1318052839" lon="7.3189903423"><ele></ele><time>2015-8-15T10:31:59Z</time></trkpt>
<trkpt lat="46.1319151707" lon="7.3193071783"><ele></ele><time>2015-8-15T10:32:2Z</time></trkpt>
<trkpt lat="46.1319549847" lon="7.3195463978"><ele></ele><time>2015-8-15T10:32:5Z</time></trkpt>
<trkpt lat="46.1320680566" lon="7.3198239226"><ele></ele><time>2015-8-15T10:32:8Z</time></trkpt>
<trkpt lat="46.1321949586" lon="7.3201244138"><ele></ele><time>2015-8-15T10:32:11Z</time></trkpt>
<trkpt lat="46.1322735809" lon="7.3203941435"><ele></ele><time>2015-8-15T10:32:14Z</time></trkpt>
<trkpt lat="46.1323148198" lon="7.3206303455"><ele></ele><time>2015-8-15T10:32:17Z</time></trkpt>
<trkpt lat="46.1324744113" lon="7.3207425792"><ele></ele><time>2015-8-15T10:32:20Z</time></trkpt>
<trkpt lat="46.1326935142" lon="7.3207737599"><ele></ele><time>2015-8-15T10:32:23Z</time></trkpt>
<trkpt lat="46.1328950990" lon="7.3208425753"><ele></ele><time>2015-8-15T10:32:26Z</time></trkpt>
<trkpt lat="46.1330914032" lon="7.3209435772"><ele></ele><time>2015-8-15T10:32:29Z</time></trkpt>
<trkpt lat="46.1332511622" lon="7.3210485186"><ele></ele><time>2015-8-15T10:32:32Z</time></trkpt>
<trkpt lat="46.1334422696" lon="7.3211296555"><ele></ele><time>2015-8-15T10:32:35Z</time></trkpt>
<trkpt lat="46.1335835885" lon="7.3212065175"><ele></ele><time>2015-8-15T10:32:38Z</time></trkpt>
<trkpt lat="46.1336607859" lon="7.3212920967"><ele></ele><time>2015-8-15T10:32:41Z</time></trkpt>
<trkpt lat="46.1338363029" lon="7.3215168994"><ele></ele><time>2015-8-15T10:32:44Z</time></trkpt>
<trkpt lat="46.1339472793" lon="7.3216091841"><ele></ele><time>2015-8-15T10:32:47Z</time></trkpt>
<trkpt lat="46.1340174358" lon="7.3216095194"><ele></ele><time>2015-8-15T10:32:50Z</time></trkpt>
<trkpt lat="46.1341245566" lon="7.3214649316"><ele></ele><time>2015-8-15T10:32:53Z</time></trkpt>
<trkpt lat="46.1342476029" lon="7.3214573879"><ele></ele><time>2015-8-15T10:32:56Z</time></trkpt>
<trkpt lat="46.1342948768" lon="7.3214859702"><ele></ele><time>2015-8-15T10:32:59Z</time></trkpt>
<trkpt lat="46.1344368663" lon="7.3216214217"><ele></ele><time>2015-8-15T10:33:2Z</time></trkpt>
<trkpt lat="46.1346951965" lon="7.3216989543"><ele></ele><time>2015-8-15T10:33:5Z</time></trkpt>
<trkpt lat="46.1348781735" lon="7.3217241000"><ele></ele><time>2015-8-15T10:33:8Z</time></trkpt>
<trkpt lat="46.1350583006" lon="7.3215911631"><ele></ele><time>2015-8-15T10:33:11Z</time></trkpt>
<trkpt lat="46.1352688540" lon="7.3213951942"><ele></ele><time>2015-8-15T10:33:14Z</time></trkpt>
<trkpt lat="46.1355058942" lon="7.3212482594"><ele></ele><time>2015-8-15T10:33:17Z</time></trkpt>
<trkpt lat="46.1357736122" lon="7.3211436532"><ele></ele><time>2015-8-15T10:33:20Z</time></trkpt>
<trkpt lat="46.1360515561" lon="7.3210946191"><ele></ele><time>2015-8-15T10:33:23Z</time></trkpt>
<trkpt lat="46.1363014206" lon="7.3212045897"><ele></ele><time>2015-8-15T10:33:26Z</time></trkpt>
<trkpt lat="46.1365517881" lon="7.3212005664"><ele></ele><time>2015-8-15T10:33:29Z</time></trkpt>
<trkpt lat="46.1366045102" lon="7.3211833835"><ele></ele><time>2015-8-15T10:33:32Z</time></trkpt>
<trkpt lat="46.1365767661" lon="7.3212642688"><ele></ele><time>2015-8-15T10:33:35Z</time></trkpt>
<trkpt lat="46.1364957131" lon="7.3213029094"><ele></ele><time>2015-8-15T10:33:38Z</time></trkpt>
<trkpt lat="46.1362084653" lon="7.3214978725"><ele></ele><time>2015-8-15T10:33:41Z</time></trkpt>
<trkpt lat="46.1359559186" lon="7.3217621539"><ele></ele><time>2015-8-15T10:33:44Z</time></trkpt>
<trkpt lat="46.1357992608" lon="7.3220872041"><ele></ele><time>2015-8-15T10:33:47Z</time></trkpt>
<trkpt lat="46.1356675811" lon="7.3224460334"><ele></ele><time>2015-8-15T10:33:50Z</time></trkpt>
<trkpt lat="46.1355575267" lon="7.3226651363"><ele></ele><time>2015-8-15T10:33:53Z</time></trkpt>
<trkpt lat="46.1354559381" lon="7.3227746040"><ele></ele><time>2015-8-15T10:33:56Z</time></trkpt>
<trkpt lat="46.1353138648" lon="7.3227810580"><ele></ele><time>2015-8-15T10:33:59Z</time></trkpt>
<trkpt lat="46.1352334823" lon="7.3227999173"><ele></ele><time>2015-8-15T10:34:2Z</time></trkpt>
<trkpt lat="46.1350743938" lon="7.3228361271"><ele></ele><time>2015-8-15T10:34:5Z</time></trkpt>
<trkpt lat="46.1349798460" lon="7.3228633683"><ele></ele><time>2015-8-15T10:34:8Z</time></trkpt>
<trkpt lat="46.1349122040" lon="7.3228876758"><ele></ele><time>2015-8-15T10:34:11Z</time></trkpt>
<trkpt lat="46.1348022334" lon="7.3228708282"><ele></ele><time>2015-8-15T10:34:14Z</time></trkpt>
<trkpt lat="46.1347053386" lon="7.3228516337"><ele></ele><time>2015-8-15T10:34:17Z</time></trkpt>
<trkpt lat="46.1345836334" lon="7.3228589259"><ele></ele><time>2015-8-15T10:34:20Z</time></trkpt>
<trkpt lat="46.1344843078" lon="7.3228360433"><ele></ele><time>2015-8-15T10:34:23Z</time></trkpt>
<trkpt lat="46.1344483495" lon="7.3228309304"><ele></ele><time>2015-8-15T10:34:26Z</time></trkpt>
<trkpt lat="46.1343720742" lon="7.3228054494"><ele></ele><time>2015-8-15T10:34:29Z</time></trkpt>
<trkpt lat="46.1342881713" lon="7.3227872606"><ele></ele><time>2015-8-15T10:34:32Z</time></trkpt>
<trkpt lat="46.1342051905" lon="7.3228155077"><ele></ele><time>2015-8-15T10:34:35Z</time></trkpt>
<trkpt lat="46.1341792904" lon="7.3228350375"><ele></ele><time>2015-8-15T10:34:38Z</time></trkpt>
<trkpt lat="46.1341511272" lon="7.3228594288"><ele></ele><time>2015-8-15T10:34:41Z</time></trkpt>
<trkpt lat="46.1341048591" lon="7.3229565751"><ele></ele><time>2015-8-15T10:34:44Z</time></trkpt>
<trkpt lat="46.1340785399" lon="7.3230380472"><ele></ele><time>2015-8-15T10:34:47Z</time></trkpt>
<trkpt lat="46.1339324433" lon="7.3230608460"><ele></ele><time>2015-8-15T10:34:50Z</time></trkpt>
<trkpt lat="46.1338577606" lon="7.3229833134"><ele></ele><time>2015-8-15T10:34:53Z</time></trkpt>
<trkpt lat="46.1337242369" lon="7.3229225446"><ele></ele><time>2015-8-15T10:34:56Z</time></trkpt>
<trkpt lat="46.1336228158" lon="7.3229150847"><ele></ele><time>2015-8-15T10:34:59Z</time></trkpt>
<trkpt lat="46.1334747076" lon="7.3229326867"><ele></ele><time>2015-8-15T10:35:2Z</time></trkpt>
<trkpt lat="46.1334046349" lon="7.3229424935"><ele></ele><time>2015-8-15T10:35:5Z</time></trkpt>
<trkpt lat="46.1332974304" lon="7.3229213711"><ele></ele><time>2015-8-15T10:35:8Z</time></trkpt>
<trkpt lat="46.1331189796" lon="7.3229169287"><ele></ele><time>2015-8-15T10:35:11Z</time></trkpt>
<trkpt lat="46.1329656746" lon="7.3228790425"><ele></ele><time>2015-8-15T10:35:14Z</time></trkpt>
<trkpt lat="46.1327769980" lon="7.3228711635"><ele></ele><time>2015-8-15T10:35:17Z</time></trkpt>
<trkpt lat="46.1326043308" lon="7.3229129892"><ele></ele><time>2015-8-15T10:35:20Z</time></trkpt>
<trkpt lat="46.1325296480" lon="7.3229268193"><ele></ele><time>2015-8-15T10:35:23Z</time></trkpt>
<trkpt lat="46.1325656064" lon="7.3230211157"><ele></ele><time>2015-8-15T10:35:26Z</time></trkpt>
<trkpt lat="46.1326775886" lon="7.3231028393"><ele></ele><time>2015-8-15T10:35:29Z</time></trkpt>
<trkpt lat="46.1328111961" lon="7.3232574016"><ele></ele><time>2015-8-15T10:35:32Z</time></trkpt>
<trkpt lat="46.1328225955" lon="7.3232649453"><ele></ele><time>2015-8-15T10:35:35Z</time></trkpt>
<trkpt lat="46.1329375952" lon="7.3233240377"><ele></ele><time>2015-8-15T10:35:38Z</time></trkpt>
<trkpt lat="46.1331241764" lon="7.3233656958"><ele></ele><time>2015-8-15T10:35:41Z</time></trkpt>
<trkpt lat="46.1332716141" lon="7.3234216869"><ele></ele><time>2015-8-15T10:35:44Z</time></trkpt>
<trkpt lat="46.1334582791" lon="7.3234829586"><ele></ele><time>2015-8-15T10:35:47Z</time></trkpt>
<trkpt lat="46.1336596124" lon="7.3235656880"><ele></ele><time>2015-8-15T10:35:50Z</time></trkpt>
<trkpt lat="46.1338583473" lon="7.3236826994"><ele></ele><time>2015-8-15T10:35:53Z</time></trkpt>
<trkpt lat="46.1340441741" lon="7.3236614931"><ele></ele><time>2015-8-15T10:35:56Z</time></trkpt>
<trkpt lat="46.1341994070" lon="7.3236423824"><ele></ele><time>2015-8-15T10:35:59Z</time></trkpt>
<trkpt lat="46.1343757622" lon="7.3236671090"><ele></ele><time>2015-8-15T10:36:2Z</time></trkpt>
<trkpt lat="46.1344921868" lon="7.3237411212"><ele></ele><time>2015-8-15T10:36:5Z</time></trkpt>
<trkpt lat="46.1346411332" lon="7.3238433804"><ele></ele><time>2015-8-15T10:36:8Z</time></trkpt>
<trkpt lat="46.1346765049" lon="7.3238805961"><ele></ele><time>2015-8-15T10:36:11Z</time></trkpt>
<trkpt lat="46.1347609106" lon="7.3239665106"><ele></ele><time>2015-8-15T10:36:14Z</time></trkpt>
<trkpt lat="46.1348635051" lon="7.3240536824"><ele></ele><time>2015-8-15T10:36:17Z</time></trkpt>
<trkpt lat="46.1350395251" lon="7.3241433688"><ele></ele><time>2015-8-15T10:36:20Z</time></trkpt>
<trkpt lat="46.1352011282" lon="7.3242301214"><ele></ele><time>2015-8-15T10:36:23Z</time></trkpt>
<trkpt lat="46.1352882162" lon="7.3242872860"><ele></ele><time>2015-8-15T10:36:26Z</time></trkpt>
<trkpt lat="46.1354021262" lon="7.3243632261"><ele></ele><time>2015-8-15T10:36:29Z</time></trkpt>
<trkpt lat="46.1355260108" lon="7.3244377412"><ele></ele><time>2015-8-15T10:36:32Z</time></trkpt>
<trkpt lat="46.1356766336" lon="7.3244990129"><ele></ele><time>2015-8-15T10:36:35Z</time></trkpt>
<trkpt lat="46.1358186230" lon="7.3245537467"><ele></ele><time>2015-8-15T10:36:38Z</time></trkpt>
<trkpt lat="46.1359068006" lon="7.3246434331"><ele></ele><time>2015-8-15T10:36:41Z</time></trkpt>
<trkpt lat="46.1359151825" lon="7.3246519826"><ele></ele><time>2015-8-15T10:36:44Z</time></trkpt>
<trkpt lat="46.1359357182" lon="7.3246667348"><ele></ele><time>2015-8-15T10:36:47Z</time></trkpt>
<trkpt lat="46.1360196210" lon="7.3247574270"><ele></ele><time>2015-8-15T10:36:50Z</time></trkpt>
<trkpt lat="46.1361460201" lon="7.3248610273"><ele></ele><time>2015-8-15T10:36:53Z</time></trkpt>
<trkpt lat="46.1362067889" lon="7.3249450978"><ele></ele><time>2015-8-15T10:36:56Z</time></trkpt>
<trkpt lat="46.1362769455" lon="7.3250316828"><ele></ele><time>2015-8-15T10:36:59Z</time></trkpt>
<trkpt lat="46.1363420729" lon="7.3251386359"><ele></ele><time>2015-8-15T10:37:2Z</time></trkpt>
<trkpt lat="46.1364009138" lon="7.3252538871"><ele></ele><time>2015-8-15T10:37:5Z</time></trkpt>
<trkpt lat="46.1364077870" lon="7.3252657056"><ele></ele><time>2015-8-15T10:37:8Z</time></trkpt>
<trkpt lat="46.1364211142" lon="7.3252890911"><ele></ele><time>2015-8-15T10:37:11Z</time></trkpt>
<trkpt lat="46.1364257243" lon="7.3253642768"><ele></ele><time>2015-8-15T10:37:14Z</time></trkpt>
<trkpt lat="46.1365026701" lon="7.3255610839"><ele></ele><time>2015-8-15T10:37:17Z</time></trkpt>
<trkpt lat="46.1365984753" lon="7.3257173225"><ele></ele><time>2015-8-15T10:37:20Z</time></trkpt>
<trkpt lat="46.1367629282" lon="7.3258531932"><ele></ele><time>2015-8-15T10:37:23Z</time></trkpt>
<trkpt lat="46.1368990503" lon="7.3259222601"><ele></ele><time>2015-8-15T10:37:26Z</time></trkpt>
<trkpt lat="46.1370487511" lon="7.3259262834"><ele></ele><time>2015-8-15T10:37:29Z</time></trkpt>
<trkpt lat="46.1371733062" lon="7.3259011377"><ele></ele><time>2015-8-15T10:37:32Z</time></trkpt>
<trkpt lat="46.1373450514" lon="7.3259440530"><ele></ele><time>2015-8-15T10:37:35Z</time></trkpt>
<trkpt lat="46.1375338957" lon="7.3260683566"><ele></ele><time>2015-8-15T10:37:38Z</time></trkpt>
<trkpt lat="46.1377291102" lon="7.3261940014"><ele></ele><time>2015-8-15T10:37:41Z</time></trkpt>
<trkpt lat="46.1380089819" lon="7.3263264354"><ele></ele><time>2015-8-15T10:37:44Z</time></trkpt>
<trkpt lat="46.1383341998" lon="7.3263788223"><ele></ele><time>2015-8-15T10:37:47Z</time></trkpt>
<trkpt lat="46.1385771912" lon="7.3264015373"><ele></ele><time>2015-8-15T10:37:50Z</time></trkpt>
<trkpt lat="46.1387914326" lon="7.3264269345"><ele></ele><time>2015-8-15T10:37:53Z</time></trkpt>
<trkpt lat="46.1390570551" lon="7.3264913075"><ele></ele><time>2015-8-15T10:37:56Z</time></trkpt>
<trkpt lat="46.1392874736" lon="7.3264704365"><ele></ele><time>2015-8-15T10:37:59Z</time></trkpt>
<trkpt lat="46.1395326443" lon="7.3263512459"><ele></ele><time>2015-8-15T10:38:2Z</time></trkpt>
<trkpt lat="46.1397057306" lon="7.3265840113"><ele></ele><time>2015-8-15T10:38:5Z</time></trkpt>
<trkpt lat="46.1398734525" lon="7.3268249910"><ele></ele><time>2015-8-15T10:38:8Z</time></trkpt>
<trkpt lat="46.1399842612" lon="7.3270984087"><ele></ele><time>2015-8-15T10:38:11Z</time></trkpt>
<trkpt lat="46.1401050445" lon="7.3273954634"><ele></ele><time>2015-8-15T10:38:14Z</time></trkpt>
<trkpt lat="46.1402350478" lon="7.3276106268"><ele></ele><time>2015-8-15T10:38:17Z</time></trkpt>
<trkpt lat="46.1402453575" lon="7.3276284803"><ele></ele><time>2015-8-15T10:38:20Z</time></trkpt>
<trkpt lat="46.1403054558" lon="7.3276781011"><ele></ele><time>2015-8-15T10:38:23Z</time></trkpt>
<trkpt lat="46.1404963117" lon="7.3277166579"><ele></ele><time>2015-8-15T10:38:26Z</time></trkpt>
<trkpt lat="46.1406379659" lon="7.3278005607"><ele></ele><time>2015-8-15T10:38:29Z</time></trkpt>
<trkpt lat="46.1407965515" lon="7.3278889060"><ele></ele><time>2015-8-15T10:38:32Z</time></trkpt>
<trkpt lat="46.1409579031" lon="7.3280401155"><ele></ele><time>2015-8-15T10:38:35Z</time></trkpt>
<trkpt lat="46.1411763355" lon="7.3281110264"><ele></ele><time>2015-8-15T10:38:38Z</time></trkpt>
<trkpt lat="46.1413166486" lon="7.3282424547"><ele></ele><time>2015-8-15T10:38:41Z</time></trkpt>
<trkpt lat="46.1414453108" lon="7.3284204863"><ele></ele><time>2015-8-15T10:38:44Z</time></trkpt>
<trkpt lat="46.1415929161" lon="7.3285715282"><ele></ele><time>2015-8-15T10:38:47Z</time></trkpt>
<trkpt lat="46.1417435389" lon="7.3287307005"><ele></ele><time>2015-8-15T10:38:50Z</time></trkpt>
<trkpt lat="46.1419334728" lon="7.3288549203"><ele></ele><time>2015-8-15T10:38:53Z</time></trkpt>
<trkpt lat="46.1421224847" lon="7.3290224746"><ele></ele><time>2015-8-15T10:38:56Z</time></trkpt>
<trkpt lat="46.1423239857" lon="7.3291469458"><ele></ele><time>2015-8-15T10:38:59Z</time></trkpt>
<trkpt lat="46.1425003409" lon="7.3293698207"><ele></ele><time>2015-8-15T10:39:2Z</time></trkpt>
<trkpt lat="46.1426533107" lon="7.3296020832"><ele></ele><time>2015-8-15T10:39:5Z</time></trkpt>
<trkpt lat="46.1427372135" lon="7.3299040832"><ele></ele><time>2015-8-15T10:39:8Z</time></trkpt>
<trkpt lat="46.1427805480" lon="7.3302517645"><ele></ele><time>2015-8-15T10:39:11Z</time></trkpt>
<trkpt lat="46.1429184303" lon="7.3304271977"><ele></ele><time>2015-8-15T10:39:14Z</time></trkpt>
<trkpt lat="46.1431366950" lon="7.3304929957"><ele></ele><time>2015-8-15T10:39:17Z</time></trkpt>
<trkpt lat="46.1433298979" lon="7.3305580392"><ele></ele><time>2015-8-15T10:39:20Z</time></trkpt>
<trkpt lat="46.1434961110" lon="7.3306829296"><ele></ele><time>2015-8-15T10:39:23Z</time></trkpt>
<trkpt lat="46.1436495837" lon="7.3308667447"><ele></ele><time>2015-8-15T10:39:26Z</time></trkpt>
<trkpt lat="46.1436971929" lon="7.3309215624"><ele></ele><time>2015-8-15T10:39:29Z</time></trkpt>
<trkpt lat="46.1437534355" lon="7.3309747875"><ele></ele><time>2015-8-15T10:39:32Z</time></trkpt>
<trkpt lat="46.1439114343" lon="7.3311433475"><ele></ele><time>2015-8-15T10:39:35Z</time></trkpt>
<trkpt lat="46.1439521704" lon="7.3312005959"><ele></ele><time>2015-8-15T10:39:38Z</time></trkpt>
<trkpt lat="46.1439665034" lon="7.3312263284"><ele></ele><time>2015-8-15T10:39:41Z</time></trkpt>
<trkpt lat="46.1440323852" lon="7.3313039448"><ele></ele><time>2015-8-15T10:39:44Z</time></trkpt>
<trkpt lat="46.1440416891" lon="7.3313337844"><ele></ele><time>2015-8-15T10:39:47Z</time></trkpt>
<trkpt lat="46.1441537552" lon="7.3314613570"><ele></ele><time>2015-8-15T10:39:50Z</time></trkpt>
<trkpt lat="46.1442206427" lon="7.3315572459"><ele></ele><time>2015-8-15T10:39:53Z</time></trkpt>
<trkpt lat="46.1443342175" lon="7.3317201901"><ele></ele><time>2015-8-15T10:39:56Z</time></trkpt>
<trkpt lat="46.1444617063" lon="7.3318840563"><ele></ele><time>2015-8-15T10:39:59Z</time></trkpt>
<trkpt lat="46.1445075553" lon="7.3319286481"><ele></ele><time>2015-8-15T10:40:2Z</time></trkpt>
<trkpt lat="46.1446295120" lon="7.3320328351"><ele></ele><time>2015-8-15T10:40:5Z</time></trkpt>
<trkpt lat="46.1446988303" lon="7.3320951127"><ele></ele><time>2015-8-15T10:40:8Z</time></trkpt>
<trkpt lat="46.1447746027" lon="7.3322224338"><ele></ele><time>2015-8-15T10:40:11Z</time></trkpt>
<trkpt lat="46.1448243074" lon="7.3323168978"><ele></ele><time>2015-8-15T10:40:14Z</time></trkpt>
<trkpt lat="46.1448456813" lon="7.3323594779"><ele></ele><time>2015-8-15T10:40:17Z</time></trkpt>
<trkpt lat="46.1448860820" lon="7.3324833624"><ele></ele><time>2015-8-15T10:40:20Z</time></trkpt>
<trkpt lat="46.1448963080" lon="7.3325080052"><ele></ele><time>2015-8-15T10:40:23Z</time></trkpt>
<trkpt lat="46.1449160054" lon="7.3325442150"><ele></ele><time>2015-8-15T10:40:26Z</time></trkpt>
<trkpt lat="46.1450228747" lon="7.3326025531"><ele></ele><time>2015-8-15T10:40:29Z</time></trkpt>
<trkpt lat="46.1451154947" lon="7.3327070754"><ele></ele><time>2015-8-15T10:40:32Z</time></trkpt>
<trkpt lat="46.1451239605" lon="7.3327196483"><ele></ele><time>2015-8-15T10:40:35Z</time></trkpt>
<trkpt lat="46.1451719049" lon="7.3328087479"><ele></ele><time>2015-8-15T10:40:38Z</time></trkpt>
<trkpt lat="46.1451906804" lon="7.3328632303"><ele></ele><time>2015-8-15T10:40:41Z</time></trkpt>
<trkpt lat="46.1452892516" lon="7.3329763860"><ele></ele><time>2015-8-15T10:40:44Z</time></trkpt>
<trkpt lat="46.1453465000" lon="7.3330275994"><ele></ele><time>2015-8-15T10:40:47Z</time></trkpt>
<trkpt lat="46.1454666127" lon="7.3331635538"><ele></ele><time>2015-8-15T10:40:50Z</time></trkpt>
<trkpt lat="46.1456125416" lon="7.3333170265"><ele></ele><time>2015-8-15T10:40:53Z</time></trkpt>
<trkpt lat="46.1457733903" lon="7.3334828205"><ele></ele><time>2015-8-15T10:40:56Z</time></trkpt>
<trkpt lat="46.1457893997" lon="7.3335437570"><ele></ele><time>2015-8-15T10:40:59Z</time></trkpt>
<trkpt lat="46.1457922496" lon="7.3336232174"><ele></ele><time>2015-8-15T10:41:2Z</time></trkpt>
<trkpt lat="46.1457921658" lon="7.3338734172"><ele></ele><time>2015-8-15T10:41:5Z</time></trkpt>
<trkpt lat="46.1456630006" lon="7.3341174144"><ele></ele><time>2015-8-15T10:41:8Z</time></trkpt>
<trkpt lat="46.1455631722" lon="7.3342500161"><ele></ele><time>2015-8-15T10:41:11Z</time></trkpt>
<trkpt lat="46.1454566382" lon="7.3344509304"><ele></ele><time>2015-8-15T10:41:14Z</time></trkpt>
<trkpt lat="46.1453910079" lon="7.3346378468"><ele></ele><time>2015-8-15T10:41:17Z</time></trkpt>
<trkpt lat="46.1453817040" lon="7.3347774055"><ele></ele><time>2015-8-15T10:41:20Z</time></trkpt>
<trkpt lat="46.1453798600" lon="7.3348791618"><ele></ele><time>2015-8-15T10:41:23Z</time></trkpt>
<trkpt lat="46.1453438178" lon="7.3349179700"><ele></ele><time>2015-8-15T10:41:26Z</time></trkpt>
<trkpt lat="46.1453176662" lon="7.3348297086"><ele></ele><time>2015-8-15T10:41:29Z</time></trkpt>
<trkpt lat="46.1453421414" lon="7.3345531058"><ele></ele><time>2015-8-15T10:41:32Z</time></trkpt>
<trkpt lat="46.1453443207" lon="7.3344563786"><ele></ele><time>2015-8-15T10:41:35Z</time></trkpt>
<trkpt lat="46.1453511938" lon="7.3342020717"><ele></ele><time>2015-8-15T10:41:38Z</time></trkpt>
<trkpt lat="46.1453530379" lon="7.3340765946"><ele></ele><time>2015-8-15T10:41:41Z</time></trkpt>
<trkpt lat="46.1453620065" lon="7.3339939490"><ele></ele><time>2015-8-15T10:41:44Z</time></trkpt>
<trkpt lat="46.1453656107" lon="7.3339169193"><ele></ele><time>2015-8-15T10:41:47Z</time></trkpt>
<trkpt lat="46.1452022474" lon="7.3337865807"><ele></ele><time>2015-8-15T10:41:50Z</time></trkpt>
<trkpt lat="46.1450559832" lon="7.3336817231"><ele></ele><time>2015-8-15T10:41:53Z</time></trkpt>
<trkpt lat="46.1449212860" lon="7.3335597664"><ele></ele><time>2015-8-15T10:41:56Z</time></trkpt>
<trkpt lat="46.1448142491" lon="7.3334651347"><ele></ele><time>2015-8-15T10:41:59Z</time></trkpt>
<trkpt lat="46.1446333677" lon="7.3333792202"><ele></ele><time>2015-8-15T10:42:2Z</time></trkpt>
<trkpt lat="46.1443586927" lon="7.3333409149"><ele></ele><time>2015-8-15T10:42:5Z</time></trkpt>
<trkpt lat="46.1441455409" lon="7.3332289327"><ele></ele><time>2015-8-15T10:42:8Z</time></trkpt>
<trkpt lat="46.1439094227" lon="7.3331431858"><ele></ele><time>2015-8-15T10:42:11Z</time></trkpt>
<trkpt lat="46.1437345762" lon="7.3330452014"><ele></ele><time>2015-8-15T10:42:14Z</time></trkpt>
<trkpt lat="46.1435824446" lon="7.3328947462"><ele></ele><time>2015-8-15T10:42:17Z</time></trkpt>
<trkpt lat="46.1434533633" lon="7.3328405153"><ele></ele><time>2015-8-15T10:42:20Z</time></trkpt>
<trkpt lat="46.1434521060" lon="7.3330241628"><ele></ele><time>2015-8-15T10:42:23Z</time></trkpt>
<trkpt lat="46.1436116975" lon="7.3331745341"><ele></ele><time>2015-8-15T10:42:26Z</time></trkpt>
<trkpt lat="46.1437774077" lon="7.3333176970"><ele></ele><time>2015-8-15T10:42:29Z</time></trkpt>
<trkpt lat="46.1439528409" lon="7.3334749416"><ele></ele><time>2015-8-15T10:42:32Z</time></trkpt>
<trkpt lat="46.1441419367" lon="7.3336906079"><ele></ele><time>2015-8-15T10:42:35Z</time></trkpt>
<trkpt lat="46.1443473771" lon="7.3338489421"><ele></ele><time>2015-8-15T10:42:38Z</time></trkpt>
<trkpt lat="46.1445078906" lon="7.3340916820"><ele></ele><time>2015-8-15T10:42:41Z</time></trkpt>
<trkpt lat="46.1445295997" lon="7.3342117108"><ele></ele><time>2015-8-15T10:42:44Z</time></trkpt>
<trkpt lat="46.1445208825" lon="7.3342877347"><ele></ele><time>2015-8-15T10:42:47Z</time></trkpt>
<trkpt lat="46.1445019394" lon="7.3347014654"><ele></ele><time>2015-8-15T10:42:50Z</time></trkpt>
<trkpt lat="46.1444868520" lon="7.3348753061"><ele></ele><time>2015-8-15T10:42:53Z</time></trkpt>
<trkpt lat="46.1444467027" lon="7.3350070696"><ele></ele><time>2015-8-15T10:42:56Z</time></trkpt>
<trkpt lat="46.1443505622" lon="7.3353469558"><ele></ele><time>2015-8-15T10:42:59Z</time></trkpt>
<trkpt lat="46.1442716885" lon="7.3356212117"><ele></ele><time>2015-8-15T10:43:2Z</time></trkpt>
<trkpt lat="46.1442198884" lon="7.3358859122"><ele></ele><time>2015-8-15T10:43:5Z</time></trkpt>
<trkpt lat="46.1441325489" lon="7.3361413926"><ele></ele><time>2015-8-15T10:43:8Z</time></trkpt>
<trkpt lat="46.1440756358" lon="7.3364329152"><ele></ele><time>2015-8-15T10:43:11Z</time></trkpt>
<trkpt lat="46.1441392545" lon="7.3367440514"><ele></ele><time>2015-8-15T10:43:14Z</time></trkpt>
<trkpt lat="46.1441400927" lon="7.3369490728"><ele></ele><time>2015-8-15T10:43:17Z</time></trkpt>
<trkpt lat="46.1441469658" lon="7.3369425349"><ele></ele><time>2015-8-15T10:43:20Z</time></trkpt>
<trkpt lat="46.1441452056" lon="7.3369437084"><ele></ele><time>2015-8-15T10:43:23Z</time></trkpt>
<trkpt lat="46.1441479716" lon="7.3369480669"><ele></ele><time>2015-8-15T10:43:26Z</time></trkpt>
<trkpt lat="46.1441553477" lon="7.3369480669"><ele></ele><time>2015-8-15T10:43:29Z</time></trkpt>
<trkpt lat="46.1441602930" lon="7.3369590472"><ele></ele><time>2015-8-15T10:43:32Z</time></trkpt>
<trkpt lat="46.1441570241" lon="7.3369495757"><ele></ele><time>2015-8-15T10:43:35Z</time></trkpt>
<trkpt lat="46.1441538390" lon="7.3369579576"><ele></ele><time>2015-8-15T10:43:38Z</time></trkpt>
<trkpt lat="46.1441615503" lon="7.3369705305"><ele></ele><time>2015-8-15T10:43:41Z</time></trkpt>
<trkpt lat="46.1441645678" lon="7.3369784094"><ele></ele><time>2015-8-15T10:43:44Z</time></trkpt>
<trkpt lat="46.1441713572" lon="7.3369878810"><ele></ele><time>2015-8-15T10:43:47Z</time></trkpt>
<trkpt lat="46.1441851873" lon="7.3370956723"><ele></ele><time>2015-8-15T10:43:50Z</time></trkpt>
<trkpt lat="46.1442336347" lon="7.3374111671"><ele></ele><time>2015-8-15T10:43:53Z</time></trkpt>
<trkpt lat="46.1442731973" lon="7.3374768812"><ele></ele><time>2015-8-15T10:43:56Z</time></trkpt>
<trkpt lat="46.1443434376" lon="7.3375309445"><ele></ele><time>2015-8-15T10:43:59Z</time></trkpt>
<trkpt lat="46.1444576830" lon="7.3375168629"><ele></ele><time>2015-8-15T10:44:2Z</time></trkpt>
<trkpt lat="46.1445047893" lon="7.3374849278"><ele></ele><time>2015-8-15T10:44:5Z</time></trkpt>
<trkpt lat="46.1446332838" lon="7.3373378254"><ele></ele><time>2015-8-15T10:44:8Z</time></trkpt>
<trkpt lat="46.1447290052" lon="7.3372448701"><ele></ele><time>2015-8-15T10:44:11Z</time></trkpt>
<trkpt lat="46.1448187754" lon="7.3372379132"><ele></ele><time>2015-8-15T10:44:14Z</time></trkpt>
<trkpt lat="46.1449728347" lon="7.3372830916"><ele></ele><time>2015-8-15T10:44:17Z</time></trkpt>
<trkpt lat="46.1451389641" lon="7.3372485582"><ele></ele><time>2015-8-15T10:44:20Z</time></trkpt>
<trkpt lat="46.1453349330" lon="7.3373614624"><ele></ele><time>2015-8-15T10:44:23Z</time></trkpt>
<trkpt lat="46.1455085222" lon="7.3375848401"><ele></ele><time>2015-8-15T10:44:26Z</time></trkpt>
<trkpt lat="46.1455925927" lon="7.3378225509"><ele></ele><time>2015-8-15T10:44:29Z</time></trkpt>
<trkpt lat="46.1457274575" lon="7.3380927835"><ele></ele><time>2015-8-15T10:44:32Z</time></trkpt>
<trkpt lat="46.1458386015" lon="7.3382696416"><ele></ele><time>2015-8-15T10:44:35Z</time></trkpt>
<trkpt lat="46.1459427048" lon="7.3384982161"><ele></ele><time>2015-8-15T10:44:38Z</time></trkpt>
<trkpt lat="46.1461053137" lon="7.3385135550"><ele></ele><time>2015-8-15T10:44:41Z</time></trkpt>
<trkpt lat="46.1462502368" lon="7.3382863216"><ele></ele><time>2015-8-15T10:44:44Z</time></trkpt>
<trkpt lat="46.1463743728" lon="7.3381548095"><ele></ele><time>2015-8-15T10:44:47Z</time></trkpt>
<trkpt lat="46.1464571021" lon="7.3381485231"><ele></ele><time>2015-8-15T10:44:50Z</time></trkpt>
<trkpt lat="46.1467093974" lon="7.3382300790"><ele></ele><time>2015-8-15T10:44:53Z</time></trkpt>
<trkpt lat="46.1469203699" lon="7.3383567296"><ele></ele><time>2015-8-15T10:44:56Z</time></trkpt>
<trkpt lat="46.1471320968" lon="7.3385978770"><ele></ele><time>2015-8-15T10:44:59Z</time></trkpt>
<trkpt lat="46.1473934446" lon="7.3387790099"><ele></ele><time>2015-8-15T10:45:2Z</time></trkpt>
<trkpt lat="46.1476091947" lon="7.3389977776"><ele></ele><time>2015-8-15T10:45:5Z</time></trkpt>
<trkpt lat="46.1478486657" lon="7.3391193151"><ele></ele><time>2015-8-15T10:45:8Z</time></trkpt>
<trkpt lat="46.1480699480" lon="7.3391983565"><ele></ele><time>2015-8-15T10:45:11Z</time></trkpt>
<trkpt lat="46.1482962593" lon="7.3393838480"><ele></ele><time>2015-8-15T10:45:14Z</time></trkpt>
<trkpt lat="46.1485011131" lon="7.3395653162"><ele></ele><time>2015-8-15T10:45:17Z</time></trkpt>
<trkpt lat="46.1487228982" lon="7.3396907095"><ele></ele><time>2015-8-15T10:45:20Z</time></trkpt>
<trkpt lat="46.1490019318" lon="7.3398078047"><ele></ele><time>2015-8-15T10:45:23Z</time></trkpt>
<trkpt lat="46.1492665485" lon="7.3399144225"><ele></ele><time>2015-8-15T10:45:26Z</time></trkpt>
<trkpt lat="46.1495177541" lon="7.3399840761"><ele></ele><time>2015-8-15T10:45:29Z</time></trkpt>
<trkpt lat="46.1497353483" lon="7.3400045279"><ele></ele><time>2015-8-15T10:45:32Z</time></trkpt>
<trkpt lat="46.1499678623" lon="7.3400278296"><ele></ele><time>2015-8-15T10:45:35Z</time></trkpt>
<trkpt lat="46.1502234265" lon="7.3399880156"><ele></ele><time>2015-8-15T10:45:38Z</time></trkpt>
<trkpt lat="46.1504806671" lon="7.3399855010"><ele></ele><time>2015-8-15T10:45:41Z</time></trkpt>
<trkpt lat="46.1507441942" lon="7.3399520572"><ele></ele><time>2015-8-15T10:45:44Z</time></trkpt>
<trkpt lat="46.1510484572" lon="7.3400248121"><ele></ele><time>2015-8-15T10:45:47Z</time></trkpt>
<trkpt lat="46.1512892693" lon="7.3401120678"><ele></ele><time>2015-8-15T10:45:50Z</time></trkpt>
<trkpt lat="46.1515765171" lon="7.3402187694"><ele></ele><time>2015-8-15T10:45:53Z</time></trkpt>
<trkpt lat="46.1518765893" lon="7.3403500300"><ele></ele><time>2015-8-15T10:45:56Z</time></trkpt>
<trkpt lat="46.1521060020" lon="7.3403510358"><ele></ele><time>2015-8-15T10:45:59Z</time></trkpt>
<trkpt lat="46.1523358338" lon="7.3402679712"><ele></ele><time>2015-8-15T10:46:2Z</time></trkpt>
<trkpt lat="46.1524701118" lon="7.3402563203"><ele></ele><time>2015-8-15T10:46:5Z</time></trkpt>
<trkpt lat="46.1527739558" lon="7.3402869981"><ele></ele><time>2015-8-15T10:46:8Z</time></trkpt>
<trkpt lat="46.1530494690" lon="7.3401500378"><ele></ele><time>2015-8-15T10:46:11Z</time></trkpt>
<trkpt lat="46.1533996649" lon="7.3400807194"><ele></ele><time>2015-8-15T10:46:14Z</time></trkpt>
<trkpt lat="46.1535576638" lon="7.3400452640"><ele></ele><time>2015-8-15T10:46:17Z</time></trkpt>
<trkpt lat="46.1535895988" lon="7.3400388937"><ele></ele><time>2015-8-15T10:46:20Z</time></trkpt>
<trkpt lat="46.1535969749" lon="7.3400401510"><ele></ele><time>2015-8-15T10:46:23Z</time></trkpt>
<trkpt lat="46.1535958853" lon="7.3400425818"><ele></ele><time>2015-8-15T10:46:26Z</time></trkpt>
<trkpt lat="46.1535988189" lon="7.3400310986"><ele></ele><time>2015-8-15T10:46:29Z</time></trkpt>
<trkpt lat="46.1535461806" lon="7.3400706612"><ele></ele><time>2015-8-15T10:46:32Z</time></trkpt>
<trkpt lat="46.1536766868" lon="7.3401160911"><ele></ele><time>2015-8-15T10:46:35Z</time></trkpt>
<trkpt lat="46.1538764276" lon="7.3402134888"><ele></ele><time>2015-8-15T10:46:38Z</time></trkpt>
<trkpt lat="46.1540615838" lon="7.3403795343"><ele></ele><time>2015-8-15T10:46:41Z</time></trkpt>
<trkpt lat="46.1542635038" lon="7.3406098690"><ele></ele><time>2015-8-15T10:46:44Z</time></trkpt>
<trkpt lat="46.1542915832" lon="7.3406512756"><ele></ele><time>2015-8-15T10:46:47Z</time></trkpt>
<trkpt lat="46.1542839557" lon="7.3406495992"><ele></ele><time>2015-8-15T10:46:50Z</time></trkpt>
<trkpt lat="46.1542833690" lon="7.3406549636"><ele></ele><time>2015-8-15T10:46:53Z</time></trkpt>
<trkpt lat="46.1543208361" lon="7.3407169059"><ele></ele><time>2015-8-15T10:46:56Z</time></trkpt>
<trkpt lat="46.1545013823" lon="7.3409541138"><ele></ele><time>2015-8-15T10:46:59Z</time></trkpt>
<trkpt lat="46.1545003764" lon="7.3412259389"><ele></ele><time>2015-8-15T10:47:2Z</time></trkpt>
<trkpt lat="46.1543380190" lon="7.3414709419"><ele></ele><time>2015-8-15T10:47:5Z</time></trkpt>
<trkpt lat="46.1542049982" lon="7.3416799866"><ele></ele><time>2015-8-15T10:47:8Z</time></trkpt>
<trkpt lat="46.1540883221" lon="7.3419629596"><ele></ele><time>2015-8-15T10:47:11Z</time></trkpt>
<trkpt lat="46.1539697181" lon="7.3422751855"><ele></ele><time>2015-8-15T10:47:14Z</time></trkpt>
<trkpt lat="46.1538388766" lon="7.3425506148"><ele></ele><time>2015-8-15T10:47:17Z</time></trkpt>
<trkpt lat="46.1537335161" lon="7.3428274691"><ele></ele><time>2015-8-15T10:47:20Z</time></trkpt>
<trkpt lat="46.1536648683" lon="7.3431350850"><ele></ele><time>2015-8-15T10:47:23Z</time></trkpt>
<trkpt lat="46.1536496133" lon="7.3434480652"><ele></ele><time>2015-8-15T10:47:26Z</time></trkpt>
<trkpt lat="46.1536421534" lon="7.3437287752"><ele></ele><time>2015-8-15T10:47:29Z</time></trkpt>
<trkpt lat="46.1536749266" lon="7.3439917155"><ele></ele><time>2015-8-15T10:47:32Z</time></trkpt>
<trkpt lat="46.1537127290" lon="7.3442472797"><ele></ele><time>2015-8-15T10:47:35Z</time></trkpt>
<trkpt lat="46.1537313368" lon="7.3444918636"><ele></ele><time>2015-8-15T10:47:38Z</time></trkpt>
<trkpt lat="46.1537472624" lon="7.3447433207"><ele></ele><time>2015-8-15T10:47:41Z</time></trkpt>
<trkpt lat="46.1538204364" lon="7.3448708933"><ele></ele><time>2015-8-15T10:47:44Z</time></trkpt>
<trkpt lat="46.1538454145" lon="7.3449336737"><ele></ele><time>2015-8-15T10:47:47Z</time></trkpt>
<trkpt lat="46.1539076082" lon="7.3452196643"><ele></ele><time>2015-8-15T10:47:50Z</time></trkpt>
<trkpt lat="46.1539014895" lon="7.3453883920"><ele></ele><time>2015-8-15T10:47:53Z</time></trkpt>
<trkpt lat="46.1537431553" lon="7.3454450537"><ele></ele><time>2015-8-15T10:47:56Z</time></trkpt>
<trkpt lat="46.1535921972" lon="7.3455354106"><ele></ele><time>2015-8-15T10:47:59Z</time></trkpt>
<trkpt lat="46.1535740923" lon="7.3455641605"><ele></ele><time>2015-8-15T10:48:2Z</time></trkpt>
<trkpt lat="46.1535285786" lon="7.3455990292"><ele></ele><time>2015-8-15T10:48:5Z</time></trkpt>
<trkpt lat="46.1533795483" lon="7.3456535954"><ele></ele><time>2015-8-15T10:48:8Z</time></trkpt>
<trkpt lat="46.1532710865" lon="7.3456964269"><ele></ele><time>2015-8-15T10:48:11Z</time></trkpt>
<trkpt lat="46.1531552486" lon="7.3457492329"><ele></ele><time>2015-8-15T10:48:14Z</time></trkpt>
<trkpt lat="46.1530480441" lon="7.3457974289"><ele></ele><time>2015-8-15T10:48:17Z</time></trkpt>
<trkpt lat="46.1529855151" lon="7.3457841016"><ele></ele><time>2015-8-15T10:48:20Z</time></trkpt>
<trkpt lat="46.1529579386" lon="7.3457642365"><ele></ele><time>2015-8-15T10:48:23Z</time></trkpt>
<trkpt lat="46.1529196333" lon="7.3457417730"><ele></ele><time>2015-8-15T10:48:26Z</time></trkpt>
<trkpt lat="46.1528664920" lon="7.3457336426"><ele></ele><time>2015-8-15T10:48:29Z</time></trkpt>
<trkpt lat="46.1528339703" lon="7.3457693495"><ele></ele><time>2015-8-15T10:48:32Z</time></trkpt>
<trkpt lat="46.1528335512" lon="7.3457773123"><ele></ele><time>2015-8-15T10:48:35Z</time></trkpt>
<trkpt lat="46.1528448667" lon="7.3457920644"><ele></ele><time>2015-8-15T10:48:38Z</time></trkpt>
<trkpt lat="46.1528433580" lon="7.3457911424"><ele></ele><time>2015-8-15T10:48:41Z</time></trkpt>
<trkpt lat="46.1528159492" lon="7.3460065573"><ele></ele><time>2015-8-15T10:48:44Z</time></trkpt>
<trkpt lat="46.1527634785" lon="7.3462026939"><ele></ele><time>2015-8-15T10:48:47Z</time></trkpt>
<trkpt lat="46.1527072359" lon="7.3463802226"><ele></ele><time>2015-8-15T10:48:50Z</time></trkpt>
<trkpt lat="46.1526608840" lon="7.3465373833"><ele></ele><time>2015-8-15T10:48:53Z</time></trkpt>
<trkpt lat="46.1525530927" lon="7.3466978967"><ele></ele><time>2015-8-15T10:48:56Z</time></trkpt>
<trkpt lat="46.1525157932" lon="7.3467582464"><ele></ele><time>2015-8-15T10:48:59Z</time></trkpt>
<trkpt lat="46.1524812598" lon="7.3468409758"><ele></ele><time>2015-8-15T10:49:2Z</time></trkpt>
<trkpt lat="46.1524985265" lon="7.3469381221"><ele></ele><time>2015-8-15T10:49:5Z</time></trkpt>
<trkpt lat="46.1525568645" lon="7.3470294848"><ele></ele><time>2015-8-15T10:49:8Z</time></trkpt>
<trkpt lat="46.1526281107" lon="7.3471657746"><ele></ele><time>2015-8-15T10:49:11Z</time></trkpt>
<trkpt lat="46.1527327169" lon="7.3471758328"><ele></ele><time>2015-8-15T10:49:14Z</time></trkpt>
<trkpt lat="46.1529338825" lon="7.3473371845"><ele></ele><time>2015-8-15T10:49:17Z</time></trkpt>
<trkpt lat="46.1529912986" lon="7.3475779966"><ele></ele><time>2015-8-15T10:49:20Z</time></trkpt>
<trkpt lat="46.1531590205" lon="7.3478610534"><ele></ele><time>2015-8-15T10:49:23Z</time></trkpt>
<trkpt lat="46.1531825736" lon="7.3479068186"><ele></ele><time>2015-8-15T10:49:26Z</time></trkpt>
<trkpt lat="46.1533197016" lon="7.3483018577"><ele></ele><time>2015-8-15T10:49:29Z</time></trkpt>
<trkpt lat="46.1534790415" lon="7.3485076334"><ele></ele><time>2015-8-15T10:49:32Z</time></trkpt>
<trkpt lat="46.1535979807" lon="7.3486661352"><ele></ele><time>2015-8-15T10:49:35Z</time></trkpt>
<trkpt lat="46.1536634434" lon="7.3487674724"><ele></ele><time>2015-8-15T10:49:38Z</time></trkpt>
<trkpt lat="46.1536882538" lon="7.3488423228"><ele></ele><time>2015-8-15T10:49:41Z</time></trkpt>
<trkpt lat="46.1536988989" lon="7.3488639481"><ele></ele><time>2015-8-15T10:49:44Z</time></trkpt>
<trkpt lat="46.1538915150" lon="7.3492565565"><ele></ele><time>2015-8-15T10:49:47Z</time></trkpt>
<trkpt lat="46.1540519446" lon="7.3496075906"><ele></ele><time>2015-8-15T10:49:50Z</time></trkpt>
<trkpt lat="46.1545126978" lon="7.3502905481"><ele></ele><time>2015-8-15T10:49:53Z</time></trkpt>
<trkpt lat="46.1545631569" lon="7.3503663205"><ele></ele><time>2015-8-15T10:49:56Z</time></trkpt>
<trkpt lat="46.1549506523" lon="7.3506316077"><ele></ele><time>2015-8-15T10:49:59Z</time></trkpt>
<trkpt lat="46.1554354616" lon="7.3507052008"><ele></ele><time>2015-8-15T10:50:2Z</time></trkpt>
<trkpt lat="46.1558781099" lon="7.3506944720"><ele></ele><time>2015-8-15T10:50:5Z</time></trkpt>
<trkpt lat="46.1561601609" lon="7.3508194461"><ele></ele><time>2015-8-15T10:50:8Z</time></trkpt>
<trkpt lat="46.1564370152" lon="7.3509500362"><ele></ele><time>2015-8-15T10:50:11Z</time></trkpt>
<trkpt lat="46.1569116823" lon="7.3510075361"><ele></ele><time>2015-8-15T10:50:14Z</time></trkpt>
<trkpt lat="46.1570165399" lon="7.3511591647"><ele></ele><time>2015-8-15T10:50:17Z</time></trkpt>
<trkpt lat="46.1573778000" lon="7.3513396271"><ele></ele><time>2015-8-15T10:50:20Z</time></trkpt>
<trkpt lat="46.1576318555" lon="7.3511313368"><ele></ele><time>2015-8-15T10:50:23Z</time></trkpt>
<trkpt lat="46.1576873437" lon="7.3511052690"><ele></ele><time>2015-8-15T10:50:26Z</time></trkpt>
<trkpt lat="46.1581524555" lon="7.3509402294"><ele></ele><time>2015-8-15T10:50:29Z</time></trkpt>
<trkpt lat="46.1583382823" lon="7.3508916982"><ele></ele><time>2015-8-15T10:50:32Z</time></trkpt>
<trkpt lat="46.1585982051" lon="7.3508509621"><ele></ele><time>2015-8-15T10:50:35Z</time></trkpt>
<trkpt lat="46.1586049944" lon="7.3508238886"><ele></ele><time>2015-8-15T10:50:38Z</time></trkpt>
<trkpt lat="46.1586267035" lon="7.3508497048"><ele></ele><time>2015-8-15T10:50:41Z</time></trkpt>
<trkpt lat="46.1587025598" lon="7.3509147484"><ele></ele><time>2015-8-15T10:50:44Z</time></trkpt>
<trkpt lat="46.1588877998" lon="7.3510453384"><ele></ele><time>2015-8-15T10:50:47Z</time></trkpt>
<trkpt lat="46.1591483094" lon="7.3511133157"><ele></ele><time>2015-8-15T10:50:50Z</time></trkpt>
<trkpt lat="46.1594143510" lon="7.3511263914"><ele></ele><time>2015-8-15T10:50:53Z</time></trkpt>
<trkpt lat="46.1594299413" lon="7.3511289060"><ele></ele><time>2015-8-15T10:50:56Z</time></trkpt>
<trkpt lat="46.1594275944" lon="7.3511353601"><ele></ele><time>2015-8-15T10:50:59Z</time></trkpt>
<trkpt lat="46.1594227329" lon="7.3511356954"><ele></ele><time>2015-8-15T10:51:2Z</time></trkpt>
<trkpt lat="46.1594669893" lon="7.3511584103"><ele></ele><time>2015-8-15T10:51:5Z</time></trkpt>
<trkpt lat="46.1596940551" lon="7.3512645252"><ele></ele><time>2015-8-15T10:51:8Z</time></trkpt>
<trkpt lat="46.1600082926" lon="7.3513421416"><ele></ele><time>2015-8-15T10:51:11Z</time></trkpt>
<trkpt lat="46.1602343526" lon="7.3514433112"><ele></ele><time>2015-8-15T10:51:14Z</time></trkpt>
<trkpt lat="46.1603692174" lon="7.3514526151"><ele></ele><time>2015-8-15T10:51:17Z</time></trkpt>
<trkpt lat="46.1603664514" lon="7.3513747472"><ele></ele><time>2015-8-15T10:51:20Z</time></trkpt>
<trkpt lat="46.1602659523" lon="7.3512947001"><ele></ele><time>2015-8-15T10:51:23Z</time></trkpt>
<trkpt lat="46.1600010842" lon="7.3510588333"><ele></ele><time>2015-8-15T10:51:26Z</time></trkpt>
<trkpt lat="46.1597544886" lon="7.3508612718"><ele></ele><time>2015-8-15T10:51:29Z</time></trkpt>
<trkpt lat="46.1594058014" lon="7.3504888639"><ele></ele><time>2015-8-15T10:51:32Z</time></trkpt>
<trkpt lat="46.1592258420" lon="7.3501678370"><ele></ele><time>2015-8-15T10:51:35Z</time></trkpt>
<trkpt lat="46.1591236666" lon="7.3499108478"><ele></ele><time>2015-8-15T10:51:38Z</time></trkpt>
<trkpt lat="46.1591405142" lon="7.3496318143"><ele></ele><time>2015-8-15T10:51:41Z</time></trkpt>
<trkpt lat="46.1591672525" lon="7.3493408784"><ele></ele><time>2015-8-15T10:51:44Z</time></trkpt>
<trkpt lat="46.1592166219" lon="7.3491435684"><ele></ele><time>2015-8-15T10:51:47Z</time></trkpt>
<trkpt lat="46.1593080685" lon="7.3489537183"><ele></ele><time>2015-8-15T10:51:50Z</time></trkpt>
<trkpt lat="46.1593102477" lon="7.3489584122"><ele></ele><time>2015-8-15T10:51:53Z</time></trkpt>
<trkpt lat="46.1593414284" lon="7.3489677161"><ele></ele><time>2015-8-15T10:51:56Z</time></trkpt>
<trkpt lat="46.1593427695" lon="7.3489676323"><ele></ele><time>2015-8-15T10:51:59Z</time></trkpt>
<trkpt lat="46.1594459508" lon="7.3487380520"><ele></ele><time>2015-8-15T10:52:2Z</time></trkpt>
<trkpt lat="46.1595431808" lon="7.3485005088"><ele></ele><time>2015-8-15T10:52:5Z</time></trkpt>
<trkpt lat="46.1596289277" lon="7.3480617162"><ele></ele><time>2015-8-15T10:52:8Z</time></trkpt>
<trkpt lat="46.1596282572" lon="7.3478773981"><ele></ele><time>2015-8-15T10:52:11Z</time></trkpt>
<trkpt lat="46.1595902033" lon="7.3477613926"><ele></ele><time>2015-8-15T10:52:14Z</time></trkpt>
<trkpt lat="46.1595928017" lon="7.3475291301"><ele></ele><time>2015-8-15T10:52:17Z</time></trkpt>
<trkpt lat="46.1595920473" lon="7.3474730551"><ele></ele><time>2015-8-15T10:52:20Z</time></trkpt>
<trkpt lat="46.1596138403" lon="7.3473616596"><ele></ele><time>2015-8-15T10:52:23Z</time></trkpt>
<trkpt lat="46.1595868506" lon="7.3470777646"><ele></ele><time>2015-8-15T10:52:26Z</time></trkpt>
<trkpt lat="46.1594811548" lon="7.3468384612"><ele></ele><time>2015-8-15T10:52:29Z</time></trkpt>
<trkpt lat="46.1594495550" lon="7.3465526383"><ele></ele><time>2015-8-15T10:52:32Z</time></trkpt>
<trkpt lat="46.1595278420" lon="7.3463114910"><ele></ele><time>2015-8-15T10:52:35Z</time></trkpt>
<trkpt lat="46.1595654767" lon="7.3462742753"><ele></ele><time>2015-8-15T10:52:38Z</time></trkpt>
<trkpt lat="46.1595654767" lon="7.3462725151"><ele></ele><time>2015-8-15T10:52:41Z</time></trkpt>
<trkpt lat="46.1595705897" lon="7.3462753650"><ele></ele><time>2015-8-15T10:52:44Z</time></trkpt>
<trkpt lat="46.1595901195" lon="7.3464230541"><ele></ele><time>2015-8-15T10:52:47Z</time></trkpt>
<trkpt lat="46.1596559174" lon="7.3465043586"><ele></ele><time>2015-8-15T10:52:50Z</time></trkpt>
<trkpt lat="46.1597088072" lon="7.3465637863"><ele></ele><time>2015-8-15T10:52:53Z</time></trkpt>
<trkpt lat="46.1598164309" lon="7.3464901932"><ele></ele><time>2015-8-15T10:52:56Z</time></trkpt>
<trkpt lat="46.1597977392" lon="7.3463565018"><ele></ele><time>2015-8-15T10:52:59Z</time></trkpt>
<trkpt lat="46.1598740984" lon="7.3460313678"><ele></ele><time>2015-8-15T10:53:2Z</time></trkpt>
<trkpt lat="46.1599499546" lon="7.3458238319"><ele></ele><time>2015-8-15T10:53:5Z</time></trkpt>
<trkpt lat="46.1600025091" lon="7.3456423637"><ele></ele><time>2015-8-15T10:53:8Z</time></trkpt>
<trkpt lat="46.1599997431" lon="7.3447553068"><ele></ele><time>2015-8-15T10:53:11Z</time></trkpt>
<trkpt lat="46.1599680595" lon="7.3442150932"><ele></ele><time>2015-8-15T10:53:14Z</time></trkpt>
<trkpt lat="46.1598093901" lon="7.3434256855"><ele></ele><time>2015-8-15T10:53:17Z</time></trkpt>
<trkpt lat="46.1596125830" lon="7.3429980408"><ele></ele><time>2015-8-15T10:53:20Z</time></trkpt>
<trkpt lat="46.1596585158" lon="7.3425874114"><ele></ele><time>2015-8-15T10:53:23Z</time></trkpt>
<trkpt lat="46.1596904509" lon="7.3423943762"><ele></ele><time>2015-8-15T10:53:26Z</time></trkpt>
<trkpt lat="46.1596966535" lon="7.3419224750"><ele></ele><time>2015-8-15T10:53:29Z</time></trkpt>
<trkpt lat="46.1596183665" lon="7.3418379854"><ele></ele><time>2015-8-15T10:53:32Z</time></trkpt>
<trkpt lat="46.1594239064" lon="7.3416662402"><ele></ele><time>2015-8-15T10:53:35Z</time></trkpt>
<trkpt lat="46.1591955833" lon="7.3414535914"><ele></ele><time>2015-8-15T10:53:38Z</time></trkpt>
<trkpt lat="46.1589204054" lon="7.3413556069"><ele></ele><time>2015-8-15T10:53:41Z</time></trkpt>
<trkpt lat="46.1587337404" lon="7.3413582053"><ele></ele><time>2015-8-15T10:53:44Z</time></trkpt>
<trkpt lat="46.1584252864" lon="7.3414246738"><ele></ele><time>2015-8-15T10:53:47Z</time></trkpt>
<trkpt lat="46.1581558920" lon="7.3414294515"><ele></ele><time>2015-8-15T10:53:50Z</time></trkpt>
<trkpt lat="46.1578684766" lon="7.3413305450"><ele></ele><time>2015-8-15T10:53:53Z</time></trkpt>
<trkpt lat="46.1576269940" lon="7.3410931695"><ele></ele><time>2015-8-15T10:53:56Z</time></trkpt>
<trkpt lat="46.1575087253" lon="7.3408505134"><ele></ele><time>2015-8-15T10:53:59Z</time></trkpt>
<trkpt lat="46.1573401652" lon="7.3406085279"><ele></ele><time>2015-8-15T10:54:2Z</time></trkpt>
<trkpt lat="46.1571377423" lon="7.3403646983"><ele></ele><time>2015-8-15T10:54:5Z</time></trkpt>
<trkpt lat="46.1570511572" lon="7.3401859961"><ele></ele><time>2015-8-15T10:54:8Z</time></trkpt>
<trkpt lat="46.1570144445" lon="7.3398653045"><ele></ele><time>2015-8-15T10:54:11Z</time></trkpt>
<trkpt lat="46.1569180526" lon="7.3395887855"><ele></ele><time>2015-8-15T10:54:14Z</time></trkpt>
<trkpt lat="46.1568323057" lon="7.3393629771"><ele></ele><time>2015-8-15T10:54:17Z</time></trkpt>
<trkpt lat="46.1568349879" lon="7.3393579479"><ele></ele><time>2015-8-15T10:54:20Z</time></trkpt>
<trkpt lat="46.1568494048" lon="7.3391176388"><ele></ele><time>2015-8-15T10:54:23Z</time></trkpt>
<trkpt lat="46.1568329763" lon="7.3389641661"><ele></ele><time>2015-8-15T10:54:26Z</time></trkpt>
<trkpt lat="46.1568211578" lon="7.3389460612"><ele></ele><time>2015-8-15T10:54:29Z</time></trkpt>
<trkpt lat="46.1567508336" lon="7.3388636671"><ele></ele><time>2015-8-15T10:54:32Z</time></trkpt>
<trkpt lat="46.1566588841" lon="7.3386647645"><ele></ele><time>2015-8-15T10:54:35Z</time></trkpt>
<trkpt lat="46.1565895658" lon="7.3384174984"><ele></ele><time>2015-8-15T10:54:38Z</time></trkpt>
<trkpt lat="46.1565117817" lon="7.3383191787"><ele></ele><time>2015-8-15T10:54:41Z</time></trkpt>
<trkpt lat="46.1564510129" lon="7.3383726552"><ele></ele><time>2015-8-15T10:54:44Z</time></trkpt>
<trkpt lat="46.1563834548" lon="7.3386614956"><ele></ele><time>2015-8-15T10:54:47Z</time></trkpt>
<trkpt lat="46.1564310640" lon="7.3390142061"><ele></ele><time>2015-8-15T10:54:50Z</time></trkpt>
<trkpt lat="46.1563552078" lon="7.3393512424"><ele></ele><time>2015-8-15T10:54:53Z</time></trkpt>
<trkpt lat="46.1563391145" lon="7.3396907933"><ele></ele><time>2015-8-15T10:54:56Z</time></trkpt>
<trkpt lat="46.1564192455" lon="7.3401761055"><ele></ele><time>2015-8-15T10:54:59Z</time></trkpt>
<trkpt lat="46.1564063374" lon="7.3403263092"><ele></ele><time>2015-8-15T10:55:2Z</time></trkpt>
<trkpt lat="46.1564117856" lon="7.3403493594"><ele></ele><time>2015-8-15T10:55:5Z</time></trkpt>
<trkpt lat="46.1564195808" lon="7.3403638601"><ele></ele><time>2015-8-15T10:55:8Z</time></trkpt>
<trkpt lat="46.1564022303" lon="7.3403620161"><ele></ele><time>2015-8-15T10:55:11Z</time></trkpt>
<trkpt lat="46.1563684512" lon="7.3403874971"><ele></ele><time>2015-8-15T10:55:14Z</time></trkpt>
<trkpt lat="46.1562772561" lon="7.3403584119"><ele></ele><time>2015-8-15T10:55:17Z</time></trkpt>
<trkpt lat="46.1562744901" lon="7.3403378762"><ele></ele><time>2015-8-15T10:55:20Z</time></trkpt>
<trkpt lat="46.1562382802" lon="7.3401695676"><ele></ele><time>2015-8-15T10:55:23Z</time></trkpt>
<trkpt lat="46.1561312433" lon="7.3399179429"><ele></ele><time>2015-8-15T10:55:26Z</time></trkpt>
<trkpt lat="46.1560365278" lon="7.3397296853"><ele></ele><time>2015-8-15T10:55:29Z</time></trkpt>
<trkpt lat="46.1559256352" lon="7.3395847622"><ele></ele><time>2015-8-15T10:55:32Z</time></trkpt>
<trkpt lat="46.1558134854" lon="7.3395067267"><ele></ele><time>2015-8-15T10:55:35Z</time></trkpt>
<trkpt lat="46.1558043491" lon="7.3394975904"><ele></ele><time>2015-8-15T10:55:38Z</time></trkpt>
<trkpt lat="46.1557694804" lon="7.3394550942"><ele></ele><time>2015-8-15T10:55:41Z</time></trkpt>
<trkpt lat="46.1556341127" lon="7.3392147850"><ele></ele><time>2015-8-15T10:55:44Z</time></trkpt>
<trkpt lat="46.1554813106" lon="7.3389178142"><ele></ele><time>2015-8-15T10:55:47Z</time></trkpt>
<trkpt lat="46.1553472001" lon="7.3386945203"><ele></ele><time>2015-8-15T10:55:50Z</time></trkpt>
<trkpt lat="46.1553710885" lon="7.3384520318"><ele></ele><time>2015-8-15T10:55:53Z</time></trkpt>
<trkpt lat="46.1554207094" lon="7.3381817993"><ele></ele><time>2015-8-15T10:55:56Z</time></trkpt>
<trkpt lat="46.1553580128" lon="7.3378773686"><ele></ele><time>2015-8-15T10:55:59Z</time></trkpt>
<trkpt lat="46.1552066356" lon="7.3377309367"><ele></ele><time>2015-8-15T10:56:2Z</time></trkpt>
<trkpt lat="46.1552077252" lon="7.3377306852"><ele></ele><time>2015-8-15T10:56:5Z</time></trkpt>
<trkpt lat="46.1552094016" lon="7.3377323616"><ele></ele><time>2015-8-15T10:56:8Z</time></trkpt>
<trkpt lat="46.1550151091" lon="7.3377089761"><ele></ele><time>2015-8-15T10:56:11Z</time></trkpt>
<trkpt lat="46.1548107583" lon="7.3376306053"><ele></ele><time>2015-8-15T10:56:14Z</time></trkpt>
<trkpt lat="46.1547262687" lon="7.3376136739"><ele></ele><time>2015-8-15T10:56:17Z</time></trkpt>
<trkpt lat="46.1547032185" lon="7.3376079742"><ele></ele><time>2015-8-15T10:56:20Z</time></trkpt>
<trkpt lat="46.1547017936" lon="7.3376059625"><ele></ele><time>2015-8-15T10:56:23Z</time></trkpt>
<trkpt lat="46.1544815172" lon="7.3374985904"><ele></ele><time>2015-8-15T10:56:26Z</time></trkpt>
<trkpt lat="46.1544121988" lon="7.3374741990"><ele></ele><time>2015-8-15T10:56:29Z</time></trkpt>
<trkpt lat="46.1541454867" lon="7.3374033719"><ele></ele><time>2015-8-15T10:56:32Z</time></trkpt>
<trkpt lat="46.1539946124" lon="7.3374344688"><ele></ele><time>2015-8-15T10:56:35Z</time></trkpt>
<trkpt lat="46.1538602505" lon="7.3376458604"><ele></ele><time>2015-8-15T10:56:38Z</time></trkpt>
<trkpt lat="46.1536075361" lon="7.3378801346"><ele></ele><time>2015-8-15T10:56:41Z</time></trkpt>
<trkpt lat="46.1534841545" lon="7.3380863294"><ele></ele><time>2015-8-15T10:56:44Z</time></trkpt>
<trkpt lat="46.1532695778" lon="7.3382975534"><ele></ele><time>2015-8-15T10:56:47Z</time></trkpt>
<trkpt lat="46.1532446835" lon="7.3383190110"><ele></ele><time>2015-8-15T10:56:50Z</time></trkpt>
<trkpt lat="46.1531308573" lon="7.3383672070"><ele></ele><time>2015-8-15T10:56:53Z</time></trkpt>
<trkpt lat="46.1527346447" lon="7.3386606574"><ele></ele><time>2015-8-15T10:56:56Z</time></trkpt>
<trkpt lat="46.1524414457" lon="7.3388844542"><ele></ele><time>2015-8-15T10:56:59Z</time></trkpt>
<trkpt lat="46.1522878893" lon="7.3389821872"><ele></ele><time>2015-8-15T10:57:2Z</time></trkpt>
<trkpt lat="46.1520448141" lon="7.3391033895"><ele></ele><time>2015-8-15T10:57:5Z</time></trkpt>
<trkpt lat="46.1518931855" lon="7.3392150365"><ele></ele><time>2015-8-15T10:57:8Z</time></trkpt>
<trkpt lat="46.1517819576" lon="7.3393558525"><ele></ele><time>2015-8-15T10:57:11Z</time></trkpt>
<trkpt lat="46.1517297383" lon="7.3394211475"><ele></ele><time>2015-8-15T10:57:14Z</time></trkpt>
<trkpt lat="46.1516052671" lon="7.3395162821"><ele></ele><time>2015-8-15T10:57:17Z</time></trkpt>
<trkpt lat="46.1512199510" lon="7.3394621350"><ele></ele><time>2015-8-15T10:57:20Z</time></trkpt>
<trkpt lat="46.1510270834" lon="7.3394111730"><ele></ele><time>2015-8-15T10:57:23Z</time></trkpt>
<trkpt lat="46.1509499699" lon="7.3394053895"><ele></ele><time>2015-8-15T10:57:26Z</time></trkpt>
<trkpt lat="46.1507502291" lon="7.3393649049"><ele></ele><time>2015-8-15T10:57:29Z</time></trkpt>
<trkpt lat="46.1506655719" lon="7.3393672518"><ele></ele><time>2015-8-15T10:57:32Z</time></trkpt>
<trkpt lat="46.1503828503" lon="7.3394850176"><ele></ele><time>2015-8-15T10:57:35Z</time></trkpt>
<trkpt lat="46.1503393482" lon="7.3395068944"><ele></ele><time>2015-8-15T10:57:38Z</time></trkpt>
<trkpt lat="46.1502839439" lon="7.3395575210"><ele></ele><time>2015-8-15T10:57:41Z</time></trkpt>
<trkpt lat="46.1500279605" lon="7.3397262488"><ele></ele><time>2015-8-15T10:57:44Z</time></trkpt>
<trkpt lat="46.1498011462" lon="7.3398048710"><ele></ele><time>2015-8-15T10:57:47Z</time></trkpt>
<trkpt lat="46.1495745834" lon="7.3398241494"><ele></ele><time>2015-8-15T10:57:50Z</time></trkpt>
<trkpt lat="46.1493620183" lon="7.3398663942"><ele></ele><time>2015-8-15T10:57:53Z</time></trkpt>
<trkpt lat="46.1492059473" lon="7.3398445174"><ele></ele><time>2015-8-15T10:57:56Z</time></trkpt>
<trkpt lat="46.1489439290" lon="7.3397739418"><ele></ele><time>2015-8-15T10:57:59Z</time></trkpt>
<trkpt lat="46.1486963276" lon="7.3396537453"><ele></ele><time>2015-8-15T10:58:2Z</time></trkpt>
<trkpt lat="46.1485048849" lon="7.3395429365"><ele></ele><time>2015-8-15T10:58:5Z</time></trkpt>
<trkpt lat="46.1481296271" lon="7.3392380029"><ele></ele><time>2015-8-15T10:58:8Z</time></trkpt>
<trkpt lat="46.1476601567" lon="7.3390003759"><ele></ele><time>2015-8-15T10:58:11Z</time></trkpt>
<trkpt lat="46.1473127268" lon="7.3386987112"><ele></ele><time>2015-8-15T10:58:14Z</time></trkpt>
<trkpt lat="46.1469357088" lon="7.3383803666"><ele></ele><time>2015-8-15T10:58:17Z</time></trkpt>
<trkpt lat="46.1468699947" lon="7.3383055162"><ele></ele><time>2015-8-15T10:58:20Z</time></trkpt>
<trkpt lat="46.1465114169" lon="7.3381380457"><ele></ele><time>2015-8-15T10:58:23Z</time></trkpt>
<trkpt lat="46.1462312937" lon="7.3383219447"><ele></ele><time>2015-8-15T10:58:26Z</time></trkpt>
<trkpt lat="46.1459777411" lon="7.3384930193"><ele></ele><time>2015-8-15T10:58:29Z</time></trkpt>
<trkpt lat="46.1458820198" lon="7.3383812048"><ele></ele><time>2015-8-15T10:58:32Z</time></trkpt>
<trkpt lat="46.1456482485" lon="7.3379283305"><ele></ele><time>2015-8-15T10:58:35Z</time></trkpt>
<trkpt lat="46.1455578916" lon="7.3376812320"><ele></ele><time>2015-8-15T10:58:38Z</time></trkpt>
<trkpt lat="46.1452580709" lon="7.3372462951"><ele></ele><time>2015-8-15T10:58:41Z</time></trkpt>
<trkpt lat="46.1451487709" lon="7.3372008651"><ele></ele><time>2015-8-15T10:58:44Z</time></trkpt>
<trkpt lat="46.1449047737" lon="7.3372488935"><ele></ele><time>2015-8-15T10:58:47Z</time></trkpt>
<trkpt lat="46.1446094792" lon="7.3373782262"><ele></ele><time>2015-8-15T10:58:50Z</time></trkpt>
<trkpt lat="46.1442844290" lon="7.3374177888"><ele></ele><time>2015-8-15T10:58:53Z</time></trkpt>
<trkpt lat="46.1442153621" lon="7.3371177167"><ele></ele><time>2015-8-15T10:58:56Z</time></trkpt>
<trkpt lat="46.1441508215" lon="7.3366374336"><ele></ele><time>2015-8-15T10:58:59Z</time></trkpt>
<trkpt lat="46.1441149469" lon="7.3362581525"><ele></ele><time>2015-8-15T10:59:2Z</time></trkpt>
<trkpt lat="46.1441393383" lon="7.3361579888"><ele></ele><time>2015-8-15T10:59:5Z</time></trkpt>
<trkpt lat="46.1442923080" lon="7.3357437551"><ele></ele><time>2015-8-15T10:59:8Z</time></trkpt>
<trkpt lat="46.1443192977" lon="7.3356176913"><ele></ele><time>2015-8-15T10:59:11Z</time></trkpt>
<trkpt lat="46.1445115786" lon="7.3349965084"><ele></ele><time>2015-8-15T10:59:14Z</time></trkpt>
<trkpt lat="46.1445500515" lon="7.3344643414"><ele></ele><time>2015-8-15T10:59:17Z</time></trkpt>
<trkpt lat="46.1445656419" lon="7.3341788538"><ele></ele><time>2015-8-15T10:59:20Z</time></trkpt>
<trkpt lat="46.1444715969" lon="7.3339113034"><ele></ele><time>2015-8-15T10:59:23Z</time></trkpt>
<trkpt lat="46.1441488937" lon="7.3336683959"><ele></ele><time>2015-8-15T10:59:26Z</time></trkpt>
<trkpt lat="46.1440348160" lon="7.3335549887"><ele></ele><time>2015-8-15T10:59:29Z</time></trkpt>
<trkpt lat="46.1437670980" lon="7.3332431819"><ele></ele><time>2015-8-15T10:59:32Z</time></trkpt>
<trkpt lat="46.1435523536" lon="7.3330717720"><ele></ele><time>2015-8-15T10:59:35Z</time></trkpt>
<trkpt lat="46.1434498429" lon="7.3328453768"><ele></ele><time>2015-8-15T10:59:38Z</time></trkpt>
<trkpt lat="46.1435783375" lon="7.3328451253"><ele></ele><time>2015-8-15T10:59:41Z</time></trkpt>
<trkpt lat="46.1442223191" lon="7.3332603648"><ele></ele><time>2015-8-15T10:59:44Z</time></trkpt>
<trkpt lat="46.1445087288" lon="7.3333378136"><ele></ele><time>2015-8-15T10:59:47Z</time></trkpt>
<trkpt lat="46.1446955614" lon="7.3333964869"><ele></ele><time>2015-8-15T10:59:50Z</time></trkpt>
<trkpt lat="46.1449043546" lon="7.3335144203"><ele></ele><time>2015-8-15T10:59:53Z</time></trkpt>
<trkpt lat="46.1452983040" lon="7.3338206951"><ele></ele><time>2015-8-15T10:59:56Z</time></trkpt>
<trkpt lat="46.1453677062" lon="7.3341843020"><ele></ele><time>2015-8-15T10:59:59Z</time></trkpt>
<trkpt lat="46.1453455780" lon="7.3345645051"><ele></ele><time>2015-8-15T11:0:2Z</time></trkpt>
<trkpt lat="46.1453292333" lon="7.3347514216"><ele></ele><time>2015-8-15T11:0:5Z</time></trkpt>
<trkpt lat="46.1453923490" lon="7.3348789942"><ele></ele><time>2015-8-15T11:0:8Z</time></trkpt>
<trkpt lat="46.1454462446" lon="7.3345187400"><ele></ele><time>2015-8-15T11:0:11Z</time></trkpt>
<trkpt lat="46.1456846260" lon="7.3341081105"><ele></ele><time>2015-8-15T11:0:14Z</time></trkpt>
<trkpt lat="46.1458000448" lon="7.3338610120"><ele></ele><time>2015-8-15T11:0:17Z</time></trkpt>
<trkpt lat="46.1458132882" lon="7.3337081261"><ele></ele><time>2015-8-15T11:0:20Z</time></trkpt>
<trkpt lat="46.1456390284" lon="7.3333170265"><ele></ele><time>2015-8-15T11:0:23Z</time></trkpt>
<trkpt lat="46.1452387925" lon="7.3329214007"><ele></ele><time>2015-8-15T11:0:26Z</time></trkpt>
<trkpt lat="46.1450796202" lon="7.3327029683"><ele></ele><time>2015-8-15T11:0:29Z</time></trkpt>
<trkpt lat="46.1448735930" lon="7.3324352503"><ele></ele><time>2015-8-15T11:0:32Z</time></trkpt>
<trkpt lat="46.1446192861" lon="7.3320615012"><ele></ele><time>2015-8-15T11:0:35Z</time></trkpt>
<trkpt lat="46.1443150230" lon="7.3316778615"><ele></ele><time>2015-8-15T11:0:38Z</time></trkpt>
<trkpt lat="46.1441866960" lon="7.3315432481"><ele></ele><time>2015-8-15T11:0:41Z</time></trkpt>
<trkpt lat="46.1438744701" lon="7.3311027791"><ele></ele><time>2015-8-15T11:0:44Z</time></trkpt>
<trkpt lat="46.1433494277" lon="7.3305819277"><ele></ele><time>2015-8-15T11:0:47Z</time></trkpt>
<trkpt lat="46.1432775110" lon="7.3305555247"><ele></ele><time>2015-8-15T11:0:50Z</time></trkpt>
<trkpt lat="46.1430180911" lon="7.3304935824"><ele></ele><time>2015-8-15T11:0:53Z</time></trkpt>
<trkpt lat="46.1427517142" lon="7.3301229347"><ele></ele><time>2015-8-15T11:0:56Z</time></trkpt>
<trkpt lat="46.1427559052" lon="7.3300125450"><ele></ele><time>2015-8-15T11:0:59Z</time></trkpt>
<trkpt lat="46.1426239740" lon="7.3295182642"><ele></ele><time>2015-8-15T11:1:2Z</time></trkpt>
<trkpt lat="46.1424564198" lon="7.3292613588"><ele></ele><time>2015-8-15T11:1:5Z</time></trkpt>
<trkpt lat="46.1422667373" lon="7.3291019350"><ele></ele><time>2015-8-15T11:1:8Z</time></trkpt>
<trkpt lat="46.1420248356" lon="7.3289153539"><ele></ele><time>2015-8-15T11:1:11Z</time></trkpt>
<trkpt lat="46.1418288667" lon="7.3287864402"><ele></ele><time>2015-8-15T11:1:14Z</time></trkpt>
<trkpt lat="46.1414318997" lon="7.3283604719"><ele></ele><time>2015-8-15T11:1:17Z</time></trkpt>
<trkpt lat="46.1411997210" lon="7.3281437159"><ele></ele><time>2015-8-15T11:1:20Z</time></trkpt>
<trkpt lat="46.1410680413" lon="7.3280955199"><ele></ele><time>2015-8-15T11:1:23Z</time></trkpt>
<trkpt lat="46.1406970583" lon="7.3278235272"><ele></ele><time>2015-8-15T11:1:26Z</time></trkpt>
<trkpt lat="46.1404253170" lon="7.3277251236"><ele></ele><time>2015-8-15T11:1:29Z</time></trkpt>
<trkpt lat="46.1401094869" lon="7.3274561483"><ele></ele><time>2015-8-15T11:1:32Z</time></trkpt>
<trkpt lat="46.1398758832" lon="7.3268368095"><ele></ele><time>2015-8-15T11:1:35Z</time></trkpt>
<trkpt lat="46.1397407670" lon="7.3266034573"><ele></ele><time>2015-8-15T11:1:38Z</time></trkpt>
<trkpt lat="46.1395354941" lon="7.3263483122"><ele></ele><time>2015-8-15T11:1:41Z</time></trkpt>
<trkpt lat="46.1394898128" lon="7.3263719492"><ele></ele><time>2015-8-15T11:1:44Z</time></trkpt>
<trkpt lat="46.1392950173" lon="7.3264856916"><ele></ele><time>2015-8-15T11:1:47Z</time></trkpt>
<trkpt lat="46.1388640199" lon="7.3264411837"><ele></ele><time>2015-8-15T11:1:50Z</time></trkpt>
<trkpt lat="46.1387333460" lon="7.3264095839"><ele></ele><time>2015-8-15T11:1:53Z</time></trkpt>
<trkpt lat="46.1383910291" lon="7.3263929039"><ele></ele><time>2015-8-15T11:1:56Z</time></trkpt>
<trkpt lat="46.1381554138" lon="7.3263435345"><ele></ele><time>2015-8-15T11:1:59Z</time></trkpt>
<trkpt lat="46.1378560960" lon="7.3262396827"><ele></ele><time>2015-8-15T11:2:2Z</time></trkpt>
<trkpt lat="46.1373870447" lon="7.3259263672"><ele></ele><time>2015-8-15T11:2:5Z</time></trkpt>
<trkpt lat="46.1370865535" lon="7.3258998804"><ele></ele><time>2015-8-15T11:2:8Z</time></trkpt>
<trkpt lat="46.1366487667" lon="7.3257324100"><ele></ele><time>2015-8-15T11:2:11Z</time></trkpt>
<trkpt lat="46.1365443282" lon="7.3256133031"><ele></ele><time>2015-8-15T11:2:14Z</time></trkpt>
<trkpt lat="46.1364196055" lon="7.3253693059"><ele></ele><time>2015-8-15T11:2:17Z</time></trkpt>
<trkpt lat="46.1360623688" lon="7.3248878494"><ele></ele><time>2015-8-15T11:2:20Z</time></trkpt>
<trkpt lat="46.1359700840" lon="7.3247553315"><ele></ele><time>2015-8-15T11:2:23Z</time></trkpt>
<trkpt lat="46.1356627196" lon="7.3246083129"><ele></ele><time>2015-8-15T11:2:26Z</time></trkpt>
<trkpt lat="46.1356080696" lon="7.3245741148"><ele></ele><time>2015-8-15T11:2:29Z</time></trkpt>
<trkpt lat="46.1354251765" lon="7.3244365677"><ele></ele><time>2015-8-15T11:2:32Z</time></trkpt>
<trkpt lat="46.1350199953" lon="7.3242437840"><ele></ele><time>2015-8-15T11:2:35Z</time></trkpt>
<trkpt lat="46.1347050872" lon="7.3240053188"><ele></ele><time>2015-8-15T11:2:38Z</time></trkpt>
<trkpt lat="46.1344678793" lon="7.3238397762"><ele></ele><time>2015-8-15T11:2:41Z</time></trkpt>
<trkpt lat="46.1342090461" lon="7.3237976152"><ele></ele><time>2015-8-15T11:2:44Z</time></trkpt>
<trkpt lat="46.1339870095" lon="7.3238088470"><ele></ele><time>2015-8-15T11:2:47Z</time></trkpt>
<trkpt lat="46.1336715985" lon="7.3236458190"><ele></ele><time>2015-8-15T11:2:50Z</time></trkpt>
<trkpt lat="46.1335127614" lon="7.3235911690"><ele></ele><time>2015-8-15T11:2:53Z</time></trkpt>
<trkpt lat="46.1333530024" lon="7.3235260416"><ele></ele><time>2015-8-15T11:2:56Z</time></trkpt>
<trkpt lat="46.1330317240" lon="7.3234026600"><ele></ele><time>2015-8-15T11:2:59Z</time></trkpt>
<trkpt lat="46.1329173110" lon="7.3233603314"><ele></ele><time>2015-8-15T11:3:2Z</time></trkpt>
<trkpt lat="46.1326747388" lon="7.3231561482"><ele></ele><time>2015-8-15T11:3:5Z</time></trkpt>
<trkpt lat="46.1325620860" lon="7.3230692279"><ele></ele><time>2015-8-15T11:3:8Z</time></trkpt>
<trkpt lat="46.1326366011" lon="7.3229587544"><ele></ele><time>2015-8-15T11:3:11Z</time></trkpt>
<trkpt lat="46.1327633355" lon="7.3229150008"><ele></ele><time>2015-8-15T11:3:14Z</time></trkpt>
<trkpt lat="46.1331361625" lon="7.3229030985"><ele></ele><time>2015-8-15T11:3:17Z</time></trkpt>
<trkpt lat="46.1332374997" lon="7.3228965607"><ele></ele><time>2015-8-15T11:3:20Z</time></trkpt>
<trkpt lat="46.1333974265" lon="7.3229230475"><ele></ele><time>2015-8-15T11:3:23Z</time></trkpt>
<trkpt lat="46.1336697545" lon="7.3229159229"><ele></ele><time>2015-8-15T11:3:26Z</time></trkpt>
<trkpt lat="46.1339734308" lon="7.3230483569"><ele></ele><time>2015-8-15T11:3:29Z</time></trkpt>
<trkpt lat="46.1340243928" lon="7.3230015859"><ele></ele><time>2015-8-15T11:3:32Z</time></trkpt>
<trkpt lat="46.1342061125" lon="7.3228504602"><ele></ele><time>2015-8-15T11:3:35Z</time></trkpt>
<trkpt lat="46.1345561408" lon="7.3228728399"><ele></ele><time>2015-8-15T11:3:38Z</time></trkpt>
<trkpt lat="46.1348251160" lon="7.3228689842"><ele></ele><time>2015-8-15T11:3:41Z</time></trkpt>
<trkpt lat="46.1352699436" lon="7.3227901943"><ele></ele><time>2015-8-15T11:3:44Z</time></trkpt>
<trkpt lat="46.1354801618" lon="7.3227192834"><ele></ele><time>2015-8-15T11:3:47Z</time></trkpt>
<trkpt lat="46.1356963310" lon="7.3224104103"><ele></ele><time>2015-8-15T11:3:50Z</time></trkpt>
<trkpt lat="46.1358572636" lon="7.3219528422"><ele></ele><time>2015-8-15T11:3:53Z</time></trkpt>
<trkpt lat="46.1363261472" lon="7.3214214295"><ele></ele><time>2015-8-15T11:3:56Z</time></trkpt>
<trkpt lat="46.1364299990" lon="7.3213600740"><ele></ele><time>2015-8-15T11:3:59Z</time></trkpt>
<trkpt lat="46.1366014089" lon="7.3212390393"><ele></ele><time>2015-8-15T11:4:2Z</time></trkpt>
<trkpt lat="46.1365185119" lon="7.3211920168"><ele></ele><time>2015-8-15T11:4:5Z</time></trkpt>
<trkpt lat="46.1360577587" lon="7.3210745025"><ele></ele><time>2015-8-15T11:4:8Z</time></trkpt>
<trkpt lat="46.1357621290" lon="7.3211592436"><ele></ele><time>2015-8-15T11:4:11Z</time></trkpt>
<trkpt lat="46.1350894812" lon="7.3216639180"><ele></ele><time>2015-8-15T11:4:14Z</time></trkpt>
<trkpt lat="46.1347153969" lon="7.3217929155"><ele></ele><time>2015-8-15T11:4:17Z</time></trkpt>
<trkpt lat="46.1343664583" lon="7.3216643371"><ele></ele><time>2015-8-15T11:4:20Z</time></trkpt>
<trkpt lat="46.1341341957" lon="7.3216595594"><ele></ele><time>2015-8-15T11:4:23Z</time></trkpt>
<trkpt lat="46.1338964012" lon="7.3216927517"><ele></ele><time>2015-8-15T11:4:26Z</time></trkpt>
<trkpt lat="46.1338083912" lon="7.3215565458"><ele></ele><time>2015-8-15T11:4:29Z</time></trkpt>
<trkpt lat="46.1337447725" lon="7.3214132152"><ele></ele><time>2015-8-15T11:4:32Z</time></trkpt>
<trkpt lat="46.1335271783" lon="7.3212604970"><ele></ele><time>2015-8-15T11:4:35Z</time></trkpt>
<trkpt lat="46.1333003640" lon="7.3211694695"><ele></ele><time>2015-8-15T11:4:38Z</time></trkpt>
<trkpt lat="46.1331509985" lon="7.3210695572"><ele></ele><time>2015-8-15T11:4:41Z</time></trkpt>
<trkpt lat="46.1330282874" lon="7.3209581617"><ele></ele><time>2015-8-15T11:4:44Z</time></trkpt>
<trkpt lat="46.1325215176" lon="7.3208129033"><ele></ele><time>2015-8-15T11:4:47Z</time></trkpt>
<trkpt lat="46.1323385406" lon="7.3205841612"><ele></ele><time>2015-8-15T11:4:50Z</time></trkpt>
<trkpt lat="46.1322620977" lon="7.3202349711"><ele></ele><time>2015-8-15T11:4:53Z</time></trkpt>
<trkpt lat="46.1320871674" lon="7.3198360763"><ele></ele><time>2015-8-15T11:4:56Z</time></trkpt>
<trkpt lat="46.1319396459" lon="7.3193671927"><ele></ele><time>2015-8-15T11:4:59Z</time></trkpt>
<trkpt lat="46.1318737641" lon="7.3191568907"><ele></ele><time>2015-8-15T11:5:2Z</time></trkpt>
<trkpt lat="46.1315824091" lon="7.3185835686"><ele></ele><time>2015-8-15T11:5:5Z</time></trkpt>
<trkpt lat="46.1310440395" lon="7.3181544989"><ele></ele><time>2015-8-15T11:5:8Z</time></trkpt>
<trkpt lat="46.1307826079" lon="7.3179576918"><ele></ele><time>2015-8-15T11:5:11Z</time></trkpt>
<trkpt lat="46.1303361878" lon="7.3178023752"><ele></ele><time>2015-8-15T11:5:14Z</time></trkpt>
<trkpt lat="46.1299050227" lon="7.3176341504"><ele></ele><time>2015-8-15T11:5:17Z</time></trkpt>
<trkpt lat="46.1294880230" lon="7.3177144490"><ele></ele><time>2015-8-15T11:5:20Z</time></trkpt>
<trkpt lat="46.1294612009" lon="7.3176452983"><ele></ele><time>2015-8-15T11:5:23Z</time></trkpt>
<trkpt lat="46.1295488756" lon="7.3175976891"><ele></ele><time>2015-8-15T11:5:26Z</time></trkpt>
<trkpt lat="46.1297230516" lon="7.3175028060"><ele></ele><time>2015-8-15T11:5:29Z</time></trkpt>
<trkpt lat="46.1300033424" lon="7.3173329048"><ele></ele><time>2015-8-15T11:5:32Z</time></trkpt>
<trkpt lat="46.1302429810" lon="7.3172086850"><ele></ele><time>2015-8-15T11:5:35Z</time></trkpt>
<trkpt lat="46.1305128783" lon="7.3171965312"><ele></ele><time>2015-8-15T11:5:38Z</time></trkpt>
<trkpt lat="46.1308495793" lon="7.3173373472"><ele></ele><time>2015-8-15T11:5:41Z</time></trkpt>
<trkpt lat="46.1312449537" lon="7.3174191546"><ele></ele><time>2015-8-15T11:5:44Z</time></trkpt>
<trkpt lat="46.1317022704" lon="7.3175776564"><ele></ele><time>2015-8-15T11:5:47Z</time></trkpt>
<trkpt lat="46.1324982159" lon="7.3179523274"><ele></ele><time>2015-8-15T11:5:50Z</time></trkpt>
<trkpt lat="46.1332596280" lon="7.3185693193"><ele></ele><time>2015-8-15T11:5:53Z</time></trkpt>
<trkpt lat="46.1334267631" lon="7.3187019210"><ele></ele><time>2015-8-15T11:5:56Z</time></trkpt>
<trkpt lat="46.1334711034" lon="7.3187062796"><ele></ele><time>2015-8-15T11:5:59Z</time></trkpt>
<trkpt lat="46.1335816607" lon="7.3187475186"><ele></ele><time>2015-8-15T11:6:2Z</time></trkpt>
<trkpt lat="46.1337700859" lon="7.3187246360"><ele></ele><time>2015-8-15T11:6:5Z</time></trkpt>
<trkpt lat="46.1337617878" lon="7.3187201098"><ele></ele><time>2015-8-15T11:6:8Z</time></trkpt>
<trkpt lat="46.1337487958" lon="7.3187218700"><ele></ele><time>2015-8-15T11:6:11Z</time></trkpt>
<trkpt lat="46.1337477900" lon="7.3187191039"><ele></ele><time>2015-8-15T11:6:14Z</time></trkpt>
<trkpt lat="46.1339891888" lon="7.3186517134"><ele></ele><time>2015-8-15T11:6:17Z</time></trkpt>
<trkpt lat="46.1340543162" lon="7.3186124861"><ele></ele><time>2015-8-15T11:6:20Z</time></trkpt>
<trkpt lat="46.1343110539" lon="7.3183289263"><ele></ele><time>2015-8-15T11:6:23Z</time></trkpt>
<trkpt lat="46.1346190888" lon="7.3178874515"><ele></ele><time>2015-8-15T11:6:26Z</time></trkpt>
<trkpt lat="46.1347714718" lon="7.3177524190"><ele></ele><time>2015-8-15T11:6:29Z</time></trkpt>
<trkpt lat="46.1349837016" lon="7.3175170552"><ele></ele><time>2015-8-15T11:6:32Z</time></trkpt>
<trkpt lat="46.1353838537" lon="7.3171969503"><ele></ele><time>2015-8-15T11:6:35Z</time></trkpt>
<trkpt lat="46.1354385037" lon="7.3171182442"><ele></ele><time>2015-8-15T11:6:38Z</time></trkpt>
<trkpt lat="46.1360365525" lon="7.3164415732"><ele></ele><time>2015-8-15T11:6:41Z</time></trkpt>
<trkpt lat="46.1361301783" lon="7.3161148466"><ele></ele><time>2015-8-15T11:6:44Z</time></trkpt>
<trkpt lat="46.1359488778" lon="7.3161025252"><ele></ele><time>2015-8-15T11:6:47Z</time></trkpt>
<trkpt lat="46.1359218881" lon="7.3161187861"><ele></ele><time>2015-8-15T11:6:50Z</time></trkpt>
<trkpt lat="46.1359042861" lon="7.3161636293"><ele></ele><time>2015-8-15T11:6:53Z</time></trkpt>
</trkseg></trk></gpx>